BA67 / G-STBB 7700 Squawk Report (24th of May, 2022)

Aircraft B77W Reg No. G-STBB Age 11 years old
Model 777 Jet engines 2 First flight 09-08-10
Registered 31-08-10 Rollout 20-07-10 Delivered 31-08-10
Construction No. 38286 Line No. 0887 Series 36N(ER)
ADSHEX 40621C Airline name British Airways Owner GECAS
Airfield based Heathrow~Gtr London~G First tracked N/A
Time Lat Lon Altitude Heading Speed Vertical Rate
2022-05-24 13:43:54 GMT 51.472744 -0.471855 0 90 0 0
2022-05-24 13:43:49 GMT 51.472752 -0.471859 0 90 0 0
2022-05-24 13:43:43 GMT 51.472744 -0.471855 0 90 0 0
2022-05-24 13:43:39 GMT 51.472752 -0.471859 0 90 0 0
2022-05-24 13:43:37 GMT 51.472744 -0.471874 0 90 0 0
2022-05-24 13:43:36 GMT 51.472752 -0.471878 0 90 0 0
2022-05-24 13:43:35 GMT 51.472740 -0.471878 0 90 0 0
2022-05-24 13:43:33 GMT 51.472744 -0.471892 0 90 1 0
2022-05-24 13:43:29 GMT 51.472740 -0.471916 0 90 2 0
2022-05-24 13:43:28 GMT 51.472744 -0.471930 0 90 3 0
2022-05-24 13:43:25 GMT 51.472740 -0.471992 0 90 3 0
2022-05-24 13:43:22 GMT 51.472740 -0.472050 0 90 3 0
2022-05-24 13:43:21 GMT 51.472740 -0.472088 0 90 4 0
2022-05-24 13:43:18 GMT 51.472744 -0.472171 0 90 3 0
2022-05-24 13:43:15 GMT 51.472740 -0.472221 0 90 3 0
2022-05-24 13:43:09 GMT 51.472744 -0.472356 0 92 5 0
2022-05-24 13:43:08 GMT 51.472740 -0.472374 0 92 5 0
2022-05-24 13:43:07 GMT 51.472744 -0.472412 0 92 6 0
2022-05-24 13:43:06 GMT 51.472740 -0.472507 0 92 6 0
2022-05-24 13:43:03 GMT 51.472740 -0.472660 0 92 6 0
2022-05-24 13:42:59 GMT 51.472744 -0.472820 0 95 6 0
2022-05-24 13:42:57 GMT 51.472740 -0.472908 0 98 6 0
2022-05-24 13:42:54 GMT 51.472710 -0.473099 0 115 7 0
2022-05-24 13:42:51 GMT 51.472694 -0.473156 0 123 7 0
2022-05-24 13:42:48 GMT 51.472687 -0.473303 0 146 7 0
2022-05-24 13:42:45 GMT 51.472710 -0.473451 0 165 6 0
2022-05-24 13:42:44 GMT 51.472710 -0.473451 0 165 6 0
2022-05-24 13:42:42 GMT 51.472752 -0.473499 0 174 6 0
2022-05-24 13:42:40 GMT 51.472820 -0.473518 0 180 6 0
2022-05-24 13:42:36 GMT 51.472916 -0.473537 0 180 6 0
2022-05-24 13:42:34 GMT 51.473019 -0.473526 0 180 7 0
2022-05-24 13:42:32 GMT 51.473019 -0.473526 0 180 8 0
2022-05-24 13:42:30 GMT 51.473076 -0.473526 0 180 9 0
2022-05-24 13:42:29 GMT 51.473125 -0.473537 0 180 11 0
2022-05-24 13:42:28 GMT 51.473171 -0.473537 0 180 12 0
2022-05-24 13:42:24 GMT 51.473373 -0.473544 0 180 14 0
2022-05-24 13:42:22 GMT 51.473476 -0.473544 0 180 14 0
2022-05-24 13:42:21 GMT 51.473553 -0.473557 0 180 14 0
2022-05-24 13:42:20 GMT 51.473694 -0.473544 0 180 15 0
2022-05-24 13:42:16 GMT 51.473927 -0.473537 0 180 15 0
2022-05-24 13:42:13 GMT 51.474079 -0.473537 0 180 15 0
2022-05-24 13:42:08 GMT 51.474392 -0.473537 0 180 14 0
2022-05-24 13:42:07 GMT 51.474449 -0.473544 0 180 14 0
2022-05-24 13:42:03 GMT 51.474716 -0.473557 0 180 12 0
2022-05-24 13:41:50 GMT 51.475285 -0.473563 0 185 7 0
2022-05-24 13:41:44 GMT 51.475441 -0.473576 0 199 7 0
2022-05-24 13:41:37 GMT 51.475639 -0.473581 0 230 8 0
2022-05-24 13:41:36 GMT 51.475697 -0.473557 0 241 8 0
2022-05-24 13:41:34 GMT 51.475754 -0.473518 0 255 8 0
2022-05-24 13:41:31 GMT 51.475800 -0.473366 0 264 8 0
2022-05-24 13:41:30 GMT 51.475800 -0.473284 0 267 8 0
2022-05-24 13:40:25 GMT 51.475822 -0.472394 0 270 0 0
2022-05-24 13:40:22 GMT 51.475822 -0.472393 0 270 0 0
2022-05-24 13:40:04 GMT 51.475822 -0.472394 0 270 1 0
2022-05-24 13:40:03 GMT 51.475822 -0.472393 0 270 2 0
2022-05-24 13:39:49 GMT 51.475822 -0.471992 0 270 6 0
2022-05-24 13:39:47 GMT 51.475822 -0.471911 0 270 7 0
2022-05-24 13:39:43 GMT 51.475822 -0.471649 0 270 7 0
2022-05-24 13:39:38 GMT 51.475822 -0.471391 0 270 9 0
2022-05-24 13:39:33 GMT 51.475822 -0.471076 0 270 11 0
2022-05-24 13:39:31 GMT 51.475822 -0.470965 0 270 12 0
2022-05-24 13:39:30 GMT 51.475822 -0.470867 0 270 12 0
2022-05-24 13:39:28 GMT 51.475834 -0.470619 0 270 11 0
2022-05-24 13:39:26 GMT 51.475834 -0.470505 0 270 11 0
2022-05-24 13:39:24 GMT 51.475834 -0.470352 0 270 11 0
2022-05-24 13:39:22 GMT 51.475834 -0.470219 0 267 11 0
2022-05-24 13:39:21 GMT 51.475834 -0.470129 0 267 11 0
2022-05-24 13:39:19 GMT 51.475834 -0.469907 0 264 10 0
2022-05-24 13:39:17 GMT 51.475834 -0.469814 0 264 10 0
2022-05-24 13:39:14 GMT 51.475834 -0.469608 0 258 10 0
2022-05-24 13:39:08 GMT 51.475845 -0.469189 0 227 10 0
2022-05-24 13:39:07 GMT 51.475914 -0.469035 0 213 12 0
2022-05-24 13:39:06 GMT 51.476021 -0.468903 0 208 12 0
2022-05-24 13:39:03 GMT 51.476021 -0.468903 0 208 12 0
2022-05-24 13:38:53 GMT 51.476452 -0.468552 0 225 13 0
2022-05-24 13:38:51 GMT 51.476566 -0.468441 0 233 14 0
2022-05-24 13:38:50 GMT 51.476612 -0.468348 0 239 16 0
2022-05-24 13:38:49 GMT 51.476646 -0.468274 0 239 18 0
2022-05-24 13:38:48 GMT 51.476685 -0.468178 0 241 19 0
2022-05-24 13:38:46 GMT 51.476765 -0.467930 0 241 23 0
2022-05-24 13:38:44 GMT 51.476990 -0.467290 0 241 27 0
2022-05-24 13:38:42 GMT 51.476990 -0.467290 0 241 27 0
2022-05-24 13:38:40 GMT 51.477070 -0.467052 0 241 28 0
2022-05-24 13:38:36 GMT 51.477276 -0.466399 0 247 31 0
2022-05-24 13:38:35 GMT 51.477356 -0.466084 0 253 32 0
2022-05-24 13:38:33 GMT 51.477482 -0.465379 0 261 37 0
2022-05-24 13:38:27 GMT 51.477570 -0.463791 0 270 47 0
2022-05-24 13:38:22 GMT 51.477592 -0.461998 0 270 61 0
2022-05-24 13:38:18 GMT 51.477608 -0.459217 0 270 74 0
2022-05-24 13:38:16 GMT 51.477608 -0.459217 0 270 74 0
2022-05-24 13:38:15 GMT 51.477608 -0.458401 0 270 80 0
2022-05-24 13:38:14 GMT 51.477608 -0.457659 0 270 82 0
2022-05-24 13:38:13 GMT 51.477619 -0.456489 0 270 86 0
2022-05-24 13:38:11 GMT 51.477615 -0.455818 0 270 90 0
2022-05-24 13:38:09 GMT 51.477615 -0.454578 0 270 96 0
2022-05-24 13:38:02 GMT 51.477650 -0.449829 175 270 126 -128
2022-05-24 13:37:57 GMT 51.477650 -0.445709 200 270 141 -128
2022-05-24 13:37:56 GMT 51.477676 -0.444130 200 270 150 -128
2022-05-24 13:37:54 GMT 51.477650 -0.442276 200 270 150 -128
2022-05-24 13:37:53 GMT 51.477650 -0.440598 200 270 150 -128
2022-05-24 13:37:51 GMT 51.477676 -0.435742 225 270 150 -384
2022-05-24 13:37:48 GMT 51.477676 -0.435742 250 270 150 -384
2022-05-24 13:37:46 GMT 51.477676 -0.433292 275 270 148 -704
2022-05-24 13:37:44 GMT 51.477676 -0.431065 300 270 146 -768
2022-05-24 13:37:42 GMT 51.477695 -0.428391 350 270 144 -768
2022-05-24 13:37:41 GMT 51.477695 -0.427170 375 270 144 -768
2022-05-24 13:37:40 GMT 51.477722 -0.426166 375 270 143 -768
2022-05-24 13:37:39 GMT 51.477695 -0.424652 400 270 143 -768
2022-05-24 13:37:38 GMT 51.477695 -0.422897 425 270 142 -704
2022-05-24 13:37:35 GMT 51.477722 -0.419410 475 270 142 -704
2022-05-24 13:37:32 GMT 51.477722 -0.417926 475 270 142 -768
2022-05-24 13:37:30 GMT 51.477745 -0.415344 500 270 142 -704
2022-05-24 13:37:28 GMT 51.477722 -0.413175 525 270 143 -704
2022-05-24 13:37:26 GMT 51.477722 -0.411245 550 270 143 -768
2022-05-24 13:37:25 GMT 51.477745 -0.408707 575 270 143 -832
2022-05-24 13:37:23 GMT 51.477745 -0.407562 600 270 143 -832
2022-05-24 13:37:22 GMT 51.477768 -0.405232 650 270 143 -832
2022-05-24 13:37:18 GMT 51.477791 -0.402679 650 270 142 -576
2022-05-24 13:37:17 GMT 51.477791 -0.400925 675 270 142 -576
2022-05-24 13:37:15 GMT 51.477791 -0.399323 700 270 142 -640
2022-05-24 13:37:12 GMT 51.477814 -0.395656 725 270 143 -704
2022-05-24 13:37:09 GMT 51.477837 -0.393600 750 270 143 -704
2022-05-24 13:37:08 GMT 51.477814 -0.391277 775 270 144 -768
2022-05-24 13:37:06 GMT 51.477837 -0.390167 800 270 145 -768
2022-05-24 13:37:05 GMT 51.477837 -0.389175 800 270 145 -768
2022-05-24 13:37:04 GMT 51.477837 -0.387192 825 270 146 -768
2022-05-24 13:37:02 GMT 51.477882 -0.386047 850 270 146 -896
2022-05-24 13:37:00 GMT 51.477859 -0.383705 875 270 148 -960
2022-05-24 13:36:59 GMT 51.477882 -0.382767 875 270 148 -960
2022-05-24 13:36:56 GMT 51.477859 -0.379325 950 270 149 -896
2022-05-24 13:36:54 GMT 51.477859 -0.377173 950 270 150 -896
2022-05-24 13:36:53 GMT 51.477882 -0.375977 975 270 150 -896
2022-05-24 13:36:52 GMT 51.477859 -0.373906 1,000 270 149 -768
2022-05-24 13:36:50 GMT 51.477882 -0.372772 1,025 270 149 -704
2022-05-24 13:36:49 GMT 51.477882 -0.370026 1,050 270 148 -640
2022-05-24 13:36:47 GMT 51.477882 -0.369415 1,050 270 148 -640
2022-05-24 13:36:45 GMT 51.477905 -0.367151 1,075 270 148 -704
2022-05-24 13:36:43 GMT 51.477905 -0.365147 1,100 270 148 -704
2022-05-24 13:36:42 GMT 51.477905 -0.363440 1,125 270 149 -832
2022-05-24 13:36:41 GMT 51.477882 -0.362396 1,150 270 149 -896
2022-05-24 13:36:40 GMT 51.477882 -0.361328 1,150 270 149 -960
2022-05-24 13:36:38 GMT 51.477905 -0.359134 1,200 270 149 -768
2022-05-24 13:36:37 GMT 51.477928 -0.358047 1,200 270 149 -704
2022-05-24 13:36:36 GMT 51.477928 -0.355835 1,225 270 149 -768
2022-05-24 13:36:34 GMT 51.477928 -0.354614 1,225 270 149 -768
2022-05-24 13:36:32 GMT 51.477928 -0.351486 1,275 270 148 -640
2022-05-24 13:36:31 GMT 51.477928 -0.349655 1,275 270 148 -640
2022-05-24 13:36:29 GMT 51.477928 -0.349655 1,300 270 147 -704
2022-05-24 13:36:27 GMT 51.477951 -0.345401 1,325 270 148 -832
2022-05-24 13:36:25 GMT 51.477951 -0.345401 1,325 270 149 -832
2022-05-24 13:36:24 GMT 51.477951 -0.342061 1,375 270 149 -896
2022-05-24 13:36:22 GMT 51.477951 -0.342061 1,375 270 150 -896
2022-05-24 13:36:21 GMT 51.477951 -0.339834 1,400 270 150 -768
2022-05-24 13:36:19 GMT 51.477951 -0.338720 1,450 270 150 -832
2022-05-24 13:36:18 GMT 51.477951 -0.336345 1,450 270 151 -832
2022-05-24 13:36:16 GMT 51.477997 -0.335157 1,475 270 152 -896
2022-05-24 13:36:13 GMT 51.477997 -0.332559 1,500 270 152 -832
2022-05-24 13:36:11 GMT 51.477978 -0.330124 1,525 270 153 -768
2022-05-24 13:36:10 GMT 51.477978 -0.327759 1,575 270 153 -832
2022-05-24 13:36:08 GMT 51.477978 -0.326614 1,575 270 153 -896
2022-05-24 13:36:06 GMT 51.477997 -0.324245 1,600 270 153 -832
2022-05-24 13:36:05 GMT 51.478024 -0.322495 1,625 270 154 -896
2022-05-24 13:36:04 GMT 51.477997 -0.321276 1,650 270 154 -896
2022-05-24 13:36:01 GMT 51.477997 -0.318900 1,675 270 154 -896
2022-05-24 13:36:00 GMT 51.478024 -0.317688 1,700 270 155 -832
2022-05-24 13:35:59 GMT 51.478024 -0.316467 1,700 270 155 -832
2022-05-24 13:35:56 GMT 51.478024 -0.313034 1,775 270 154 -768
2022-05-24 13:35:54 GMT 51.478024 -0.310440 1,775 270 154 -768
2022-05-24 13:35:53 GMT 51.478024 -0.309143 1,800 270 155 -768
2022-05-24 13:35:52 GMT 51.478043 -0.307988 1,825 270 156 -832
2022-05-24 13:35:50 GMT 51.478043 -0.305836 1,850 270 156 -832
2022-05-24 13:35:49 GMT 51.478043 -0.303460 1,850 270 158 -832
2022-05-24 13:35:47 GMT 51.478024 -0.302353 1,875 270 159 -896
2022-05-24 13:35:46 GMT 51.478043 -0.300046 1,900 270 161 -896
2022-05-24 13:35:44 GMT 51.478043 -0.298858 1,900 270 165 -896
2022-05-24 13:35:42 GMT 51.478069 -0.296402 1,950 270 166 -896
2022-05-24 13:35:41 GMT 51.478043 -0.294033 1,975 270 167 -832
2022-05-24 13:35:39 GMT 51.478069 -0.292816 2,000 270 168 -768
2022-05-24 13:35:37 GMT 51.478088 -0.289059 2,025 270 169 -896
2022-05-24 13:35:35 GMT 51.478069 -0.287781 2,050 270 169 -896
2022-05-24 13:35:33 GMT 51.478088 -0.285348 2,075 270 168 -896
2022-05-24 13:35:31 GMT 51.478088 -0.282453 2,100 270 168 -832
2022-05-24 13:35:30 GMT 51.478088 -0.281339 2,125 270 167 -832
2022-05-24 13:35:29 GMT 51.478069 -0.280075 2,150 270 167 -832
2022-05-24 13:35:28 GMT 51.478088 -0.278815 2,150 270 167 -832
2022-05-24 13:35:26 GMT 51.478069 -0.276184 2,200 270 167 -896
2022-05-24 13:35:25 GMT 51.478069 -0.274811 2,200 270 167 -896
2022-05-24 13:35:23 GMT 51.478088 -0.272728 2,225 270 167 -832
2022-05-24 13:35:22 GMT 51.478088 -0.271466 2,225 270 167 -832
2022-05-24 13:35:20 GMT 51.478088 -0.268571 2,275 270 168 -832
2022-05-24 13:35:18 GMT 51.478115 -0.266266 2,300 270 169 -768
2022-05-24 13:35:17 GMT 51.478115 -0.265121 2,300 270 170 -832
2022-05-24 13:35:15 GMT 51.478134 -0.262261 2,325 270 172 -896
2022-05-24 13:35:14 GMT 51.478134 -0.260183 2,350 270 175 -896
2022-05-24 13:35:11 GMT 51.478165 -0.257645 2,350 270 176 -1024
2022-05-24 13:35:09 GMT 51.478165 -0.255508 2,400 270 179 -1024
2022-05-24 13:35:08 GMT 51.478134 -0.254022 2,425 270 182 -960
2022-05-24 13:35:07 GMT 51.478134 -0.252686 2,450 270 183 -960
2022-05-24 13:35:05 GMT 51.478134 -0.250162 2,475 270 184 -896
2022-05-24 13:35:04 GMT 51.478165 -0.248260 2,475 270 185 -896
2022-05-24 13:35:02 GMT 51.478134 -0.247192 2,500 270 186 -896
2022-05-24 13:35:01 GMT 51.478134 -0.244520 2,550 270 188 -1024
2022-05-24 13:34:59 GMT 51.478165 -0.241852 2,575 270 189 -1152
2022-05-24 13:34:58 GMT 51.478165 -0.240173 2,600 270 191 -1152
2022-05-24 13:34:57 GMT 51.478165 -0.236588 2,650 270 191 -1152
2022-05-24 13:34:55 GMT 51.478165 -0.236588 2,725 270 193 -1088
2022-05-24 13:34:53 GMT 51.478165 -0.230865 2,725 270 193 -1088
2022-05-24 13:34:49 GMT 51.478165 -0.227509 2,775 270 196 -1024
2022-05-24 13:34:47 GMT 51.478165 -0.223312 2,825 270 197 -1088
2022-05-24 13:34:44 GMT 51.478180 -0.217351 2,925 270 198 -1152
2022-05-24 13:34:42 GMT 51.478180 -0.217351 2,925 270 199 -1088
2022-05-24 13:34:40 GMT 51.478180 -0.213788 2,925 270 199 -1088
2022-05-24 13:34:39 GMT 51.478210 -0.212402 2,950 270 200 -1152
2022-05-24 13:34:38 GMT 51.478210 -0.209656 2,975 270 200 -1216
2022-05-24 13:34:35 GMT 51.478210 -0.206757 3,025 270 201 -1152
2022-05-24 13:34:33 GMT 51.478210 -0.203629 3,075 270 201 -1152
2022-05-24 13:34:32 GMT 51.478210 -0.202179 3,100 270 202 -1216
2022-05-24 13:34:30 GMT 51.478226 -0.199907 3,150 270 202 -1216
2022-05-24 13:34:28 GMT 51.478210 -0.196991 3,150 270 203 -1088
2022-05-24 13:34:27 GMT 51.478226 -0.195230 3,200 270 203 -1024
2022-05-24 13:34:26 GMT 51.478210 -0.192184 3,200 270 203 -1088
2022-05-24 13:34:24 GMT 51.478226 -0.190628 3,250 270 203 -1152
2022-05-24 13:34:21 GMT 51.478256 -0.182190 3,350 270 204 -960
2022-05-24 13:34:19 GMT 51.478256 -0.182190 3,350 270 204 -960
2022-05-24 13:34:17 GMT 51.478226 -0.179567 3,375 270 204 -1088
2022-05-24 13:34:15 GMT 51.478256 -0.176468 3,450 270 204 -1088
2022-05-24 13:34:13 GMT 51.478271 -0.173925 3,450 270 204 -1088
2022-05-24 13:34:11 GMT 51.478256 -0.170364 3,475 271 204 -1024
2022-05-24 13:34:09 GMT 51.478256 -0.167313 3,525 271 204 -1088
2022-05-24 13:34:08 GMT 51.478226 -0.164498 3,550 270 204 -1152
2022-05-24 13:34:06 GMT 51.478226 -0.163013 3,575 270 204 -1152
2022-05-24 13:34:05 GMT 51.478210 -0.158691 3,625 270 203 -1088
2022-05-24 13:34:03 GMT 51.478210 -0.158691 3,625 270 203 -1088
2022-05-24 13:34:01 GMT 51.478226 -0.155590 3,650 270 203 -1152
2022-05-24 13:33:59 GMT 51.478210 -0.150070 3,750 270 203 -1088
2022-05-24 13:33:56 GMT 51.478226 -0.146163 3,800 270 203 -1152
2022-05-24 13:33:53 GMT 51.478256 -0.143814 3,800 270 203 -1152
2022-05-24 13:33:52 GMT 51.478256 -0.142136 3,825 270 203 -1216
2022-05-24 13:33:49 GMT 51.478256 -0.137177 3,900 270 203 -1024
2022-05-24 13:33:48 GMT 51.478271 -0.133914 3,925 271 203 -1024
2022-05-24 13:33:46 GMT 51.478271 -0.133172 3,950 271 203 -1024
2022-05-24 13:33:45 GMT 51.478271 -0.131168 3,975 271 203 -1088
2022-05-24 13:33:43 GMT 51.478226 -0.128421 4,000 271 203 -1152
2022-05-24 13:33:41 GMT 51.478210 -0.125427 4,075 271 203 -1216
2022-05-24 13:33:39 GMT 51.478226 -0.123893 4,075 271 203 -1216
2022-05-24 13:33:38 GMT 51.478226 -0.120850 4,100 270 202 -1216
2022-05-24 13:33:36 GMT 51.478226 -0.119439 4,125 270 203 -1152
2022-05-24 13:33:35 GMT 51.478210 -0.115891 4,175 270 203 -1024
2022-05-24 13:33:33 GMT 51.478210 -0.114365 4,200 270 203 -1024
2022-05-24 13:33:32 GMT 51.478226 -0.109715 4,250 270 203 -1152
2022-05-24 13:33:30 GMT 51.478226 -0.109715 4,250 270 203 -1280
2022-05-24 13:33:28 GMT 51.478271 -0.105781 4,300 270 204 -1280
2022-05-24 13:33:26 GMT 51.478256 -0.103455 4,325 270 204 -1280
2022-05-24 13:33:24 GMT 51.478271 -0.100436 4,375 270 204 -1280
2022-05-24 13:33:22 GMT 51.478271 -0.097244 4,450 271 205 -1152
2022-05-24 13:33:20 GMT 51.478256 -0.094376 4,450 272 205 -1216
2022-05-24 13:33:19 GMT 51.478226 -0.090860 4,500 272 206 -1152
2022-05-24 13:33:16 GMT 51.478165 -0.088501 4,525 272 206 -1152
2022-05-24 13:33:15 GMT 51.478165 -0.087128 4,550 272 206 -1216
2022-05-24 13:33:14 GMT 51.478088 -0.085218 4,575 272 206 -1216
2022-05-24 13:33:12 GMT 51.478069 -0.082092 4,650 272 207 -1152
2022-05-24 13:33:10 GMT 51.477978 -0.077515 4,650 272 207 -1152
2022-05-24 13:33:09 GMT 51.477978 -0.077515 4,675 272 207 -1152
2022-05-24 13:33:08 GMT 51.477928 -0.074463 4,750 271 208 -1024
2022-05-24 13:33:05 GMT 51.477905 -0.070595 4,750 271 208 -896
2022-05-24 13:33:03 GMT 51.477905 -0.067996 4,775 271 210 -640
2022-05-24 13:33:01 GMT 51.477859 -0.064656 4,800 271 211 -512
2022-05-24 13:33:00 GMT 51.477859 -0.063097 4,800 272 213 -320
2022-05-24 13:32:58 GMT 51.477814 -0.060128 4,825 273 214 -192
2022-05-24 13:32:56 GMT 51.477791 -0.057068 4,825 275 216 -64
2022-05-24 13:32:54 GMT 51.477650 -0.053940 4,825 277 218 -128
2022-05-24 13:32:53 GMT 51.477356 -0.048845 4,825 279 219 -192
2022-05-24 13:32:51 GMT 51.477356 -0.048845 4,825 280 219 -320
2022-05-24 13:32:49 GMT 51.477036 -0.045801 4,825 283 221 -320
2022-05-24 13:32:48 GMT 51.476860 -0.044174 4,825 285 221 -384
2022-05-24 13:32:47 GMT 51.476303 -0.040679 4,850 288 222 -384
2022-05-24 13:32:44 GMT 51.476028 -0.039120 4,850 289 223 -384
2022-05-24 13:32:43 GMT 51.475185 -0.035095 4,875 292 226 -320
2022-05-24 13:32:42 GMT 51.475185 -0.035095 4,875 293 226 -320
2022-05-24 13:32:40 GMT 51.474335 -0.031697 4,875 295 228 -192
2022-05-24 13:32:38 GMT 51.473042 -0.026932 4,900 296 229 -256
2022-05-24 13:32:36 GMT 51.472549 -0.025313 4,900 297 231 -256
2022-05-24 13:32:34 GMT 51.471600 -0.022125 4,900 298 233 -256
2022-05-24 13:32:33 GMT 51.471134 -0.020828 4,900 299 233 -256
2022-05-24 13:32:31 GMT 51.470108 -0.017624 4,900 301 235 -256
2022-05-24 13:32:30 GMT 51.469086 -0.014801 4,925 303 236 -320
2022-05-24 13:32:28 GMT 51.468575 -0.013428 4,925 304 236 -320
2022-05-24 13:32:27 GMT 51.468060 -0.012054 4,950 305 237 -256
2022-05-24 13:32:25 GMT 51.466827 -0.009056 4,950 309 238 -256
2022-05-24 13:32:24 GMT 51.465408 -0.005951 4,950 312 240 -576
2022-05-24 13:32:22 GMT 51.464478 -0.004272 5,000 314 240 -640
2022-05-24 13:32:20 GMT 51.462334 -0.000610 5,000 318 240 -384
2022-05-24 13:32:19 GMT 51.462334 -0.000610 5,000 320 241 -448
2022-05-24 13:32:17 GMT 51.460739 0.001633 5,025 324 241 -448
2022-05-24 13:32:16 GMT 51.457726 0.005188 5,025 328 242 -128
2022-05-24 13:32:14 GMT 51.457726 0.005188 5,050 330 242 -256
2022-05-24 13:32:13 GMT 51.455772 0.007019 5,050 334 242 -256
2022-05-24 13:32:10 GMT 51.454697 0.007943 5,050 341 244 -704
2022-05-24 13:32:09 GMT 51.453117 0.009155 5,050 341 244 -704
2022-05-24 13:32:07 GMT 51.449860 0.011063 5,100 346 246 -640
2022-05-24 13:32:04 GMT 51.447510 0.012100 5,100 348 247 -512
2022-05-24 13:32:02 GMT 51.445267 0.012842 5,150 354 249 -576
2022-05-24 13:32:01 GMT 51.444260 0.013139 5,150 356 250 -512
2022-05-24 13:32:00 GMT 51.440964 0.013584 5,150 1 253 -640
2022-05-24 13:31:56 GMT 51.438629 0.013584 5,200 5 254 -704
2022-05-24 13:31:54 GMT 51.436844 0.013436 5,200 9 256 -768
2022-05-24 13:31:52 GMT 51.434464 0.012916 5,225 11 256 -768
2022-05-24 13:31:51 GMT 51.433193 0.012665 5,275 15 259 -832
2022-05-24 13:31:49 GMT 51.431351 0.011951 5,275 17 259 -832
2022-05-24 13:31:48 GMT 51.427654 0.010071 5,300 22 262 -832
2022-05-24 13:31:45 GMT 51.426453 0.009279 5,325 24 263 -896
2022-05-24 13:31:43 GMT 51.423889 0.007423 5,350 30 265 -960
2022-05-24 13:31:42 GMT 51.420639 0.004380 5,400 33 266 -1024
2022-05-24 13:31:40 GMT 51.420639 0.004380 5,450 35 267 -1024
2022-05-24 13:31:38 GMT 51.418575 0.002136 5,450 39 268 -1024
2022-05-24 13:31:36 GMT 51.416656 -0.000297 5,475 42 270 -960
2022-05-24 13:31:34 GMT 51.414871 -0.002895 5,500 44 270 -960
2022-05-24 13:31:32 GMT 51.412292 -0.007248 5,575 51 271 -960
2022-05-24 13:31:29 GMT 51.410709 -0.010376 5,600 55 272 -960
2022-05-24 13:31:27 GMT 51.409058 -0.014253 5,625 58 272 -1024
2022-05-24 13:31:26 GMT 51.408382 -0.015869 5,625 60 273 -1024
2022-05-24 13:31:25 GMT 51.407318 -0.018855 5,675 63 274 -1024
2022-05-24 13:31:21 GMT 51.405823 -0.023727 5,725 68 275 -960
2022-05-24 13:31:20 GMT 51.404518 -0.029068 5,750 70 275 -896
2022-05-24 13:31:18 GMT 51.404518 -0.029068 5,775 72 275 -896
2022-05-24 13:31:16 GMT 51.403679 -0.033417 5,800 76 276 -768
2022-05-24 13:31:15 GMT 51.403381 -0.035186 5,800 77 275 -768
2022-05-24 13:31:13 GMT 51.402832 -0.039046 5,825 78 275 -768
2022-05-24 13:31:11 GMT 51.402283 -0.043574 5,850 78 276 -704
2022-05-24 13:31:09 GMT 51.401909 -0.046768 5,900 80 275 -640
2022-05-24 13:31:08 GMT 51.401688 -0.048622 5,900 80 275 -640
2022-05-24 13:31:06 GMT 51.401211 -0.053558 5,925 80 274 -704
2022-05-24 13:31:04 GMT 51.400818 -0.057456 5,925 80 274 -704
2022-05-24 13:31:02 GMT 51.400421 -0.061264 5,975 80 274 -704
2022-05-24 13:31:00 GMT 51.399994 -0.065473 6,000 80 275 -704
2022-05-24 13:30:59 GMT 51.399769 -0.067520 6,000 80 275 -704
2022-05-24 13:30:57 GMT 51.399307 -0.072079 6,025 80 275 -640
2022-05-24 13:30:55 GMT 51.398884 -0.076065 6,025 80 275 -704
2022-05-24 13:30:53 GMT 51.398464 -0.080032 6,075 80 275 -640
2022-05-24 13:30:52 GMT 51.397907 -0.085449 6,100 80 274 -640
2022-05-24 13:30:50 GMT 51.397907 -0.085449 6,100 80 274 -704
2022-05-24 13:30:48 GMT 51.397488 -0.089340 6,125 80 274 -704
2022-05-24 13:30:47 GMT 51.396790 -0.095825 6,150 80 273 -704
2022-05-24 13:30:45 GMT 51.396790 -0.095825 6,175 80 273 -704
2022-05-24 13:30:43 GMT 51.396370 -0.099487 6,175 80 273 -768
2022-05-24 13:30:42 GMT 51.396194 -0.101549 6,200 80 273 -768
2022-05-24 13:30:40 GMT 51.395718 -0.105820 6,225 80 273 -704
2022-05-24 13:30:38 GMT 51.395065 -0.112000 6,250 80 273 -704
2022-05-24 13:30:36 GMT 51.394867 -0.113872 6,275 80 273 -704
2022-05-24 13:30:35 GMT 51.394276 -0.119476 6,300 80 274 -704
2022-05-24 13:30:33 GMT 51.394276 -0.119476 6,300 80 274 -704
2022-05-24 13:30:32 GMT 51.393997 -0.122186 6,325 80 274 -704
2022-05-24 13:30:29 GMT 51.393494 -0.127011 6,350 80 274 -704
2022-05-24 13:30:28 GMT 51.393265 -0.129238 6,350 80 274 -704
2022-05-24 13:30:27 GMT 51.392944 -0.132059 6,375 80 274 -704
2022-05-24 13:30:26 GMT 51.392738 -0.134125 6,375 80 274 -704
2022-05-24 13:30:25 GMT 51.392090 -0.140305 6,425 80 275 -704
2022-05-24 13:30:23 GMT 51.392090 -0.140305 6,425 80 275 -704
2022-05-24 13:30:22 GMT 51.391853 -0.142365 6,425 80 275 -704
2022-05-24 13:30:19 GMT 51.391251 -0.148315 6,475 80 275 -640
2022-05-24 13:30:16 GMT 51.390427 -0.156407 6,500 80 275 -704
2022-05-24 13:30:14 GMT 51.390224 -0.158234 6,550 80 275 -704
2022-05-24 13:30:12 GMT 51.389786 -0.162568 6,550 80 274 -704
2022-05-24 13:30:11 GMT 51.389202 -0.168076 6,575 80 274 -704
2022-05-24 13:30:09 GMT 51.389202 -0.168076 6,575 80 274 -704
2022-05-24 13:30:07 GMT 51.388824 -0.171847 6,600 80 274 -704
2022-05-24 13:30:06 GMT 51.388641 -0.173645 6,625 80 274 -704
2022-05-24 13:30:04 GMT 51.388092 -0.178676 6,650 80 275 -704
2022-05-24 13:30:02 GMT 51.387756 -0.181808 6,650 80 275 -704
2022-05-24 13:30:01 GMT 51.387573 -0.183792 6,675 80 275 -704
2022-05-24 13:29:59 GMT 51.386810 -0.190925 6,700 80 276 -704
2022-05-24 13:29:57 GMT 51.386536 -0.193448 6,725 80 276 -640
2022-05-24 13:29:55 GMT 51.386353 -0.195304 6,750 80 276 -640
2022-05-24 13:29:54 GMT 51.385944 -0.199051 6,750 80 275 -640
2022-05-24 13:29:52 GMT 51.385712 -0.201035 6,775 80 275 -640
2022-05-24 13:29:51 GMT 51.385475 -0.203247 6,775 80 275 -640
2022-05-24 13:29:50 GMT 51.384979 -0.207701 6,800 80 275 -704
2022-05-24 13:29:48 GMT 51.384781 -0.209732 6,825 80 275 -704
2022-05-24 13:29:47 GMT 51.384384 -0.213343 6,850 80 275 -704
2022-05-24 13:29:45 GMT 51.384129 -0.215378 6,850 79 276 -704
2022-05-24 13:29:43 GMT 51.383698 -0.219578 6,875 79 276 -704
2022-05-24 13:29:42 GMT 51.383286 -0.223364 6,900 79 276 -704
2022-05-24 13:29:39 GMT 51.382828 -0.227447 6,925 79 276 -704
2022-05-24 13:29:38 GMT 51.382313 -0.232239 6,950 79 276 -704
2022-05-24 13:29:36 GMT 51.382095 -0.234202 6,950 79 276 -704
2022-05-24 13:29:35 GMT 51.381683 -0.238062 6,975 80 276 -704
2022-05-24 13:29:32 GMT 51.381317 -0.241031 7,025 80 277 -704
2022-05-24 13:29:31 GMT 51.381100 -0.243073 7,050 80 277 -704
2022-05-24 13:29:29 GMT 51.380543 -0.248337 7,050 80 277 -768
2022-05-24 13:29:27 GMT 51.380169 -0.251617 7,075 80 277 -768
2022-05-24 13:29:26 GMT 51.379532 -0.257585 7,125 80 277 -704
2022-05-24 13:29:24 GMT 51.379532 -0.257585 7,125 80 277 -704
2022-05-24 13:29:22 GMT 51.379120 -0.261371 7,125 80 277 -704
2022-05-24 13:29:21 GMT 51.378891 -0.263449 7,125 80 277 -704
2022-05-24 13:29:19 GMT 51.378448 -0.267639 7,150 80 278 -704
2022-05-24 13:29:18 GMT 51.377975 -0.271689 7,175 80 278 -704
2022-05-24 13:29:16 GMT 51.377796 -0.273743 7,200 80 278 -704
2022-05-24 13:29:14 GMT 51.377289 -0.278073 7,225 80 278 -704
2022-05-24 13:29:13 GMT 51.377060 -0.280077 7,250 80 278 -704
2022-05-24 13:29:11 GMT 51.376602 -0.284605 7,250 80 278 -704
2022-05-24 13:29:09 GMT 51.375916 -0.290841 7,300 80 278 -704
2022-05-24 13:29:06 GMT 51.375549 -0.294033 7,300 80 278 -704
2022-05-24 13:29:05 GMT 51.375366 -0.295889 7,350 80 279 -704
2022-05-24 13:29:02 GMT 51.374451 -0.304203 7,375 80 279 -704
2022-05-24 13:29:00 GMT 51.374256 -0.306015 7,375 79 279 -704
2022-05-24 13:28:58 GMT 51.373795 -0.310516 7,400 79 279 -704
2022-05-24 13:28:57 GMT 51.373562 -0.312271 7,425 79 279 -704
2022-05-24 13:28:55 GMT 51.373123 -0.316228 7,450 79 279 -704
2022-05-24 13:28:54 GMT 51.372894 -0.318307 7,450 79 279 -704
2022-05-24 13:28:53 GMT 51.372116 -0.325241 7,500 79 279 -768
2022-05-24 13:28:51 GMT 51.372116 -0.325241 7,500 79 279 -768
2022-05-24 13:28:49 GMT 51.371384 -0.331297 7,525 79 280 -704
2022-05-24 13:28:48 GMT 51.371384 -0.331297 7,525 79 280 -704
2022-05-24 13:28:46 GMT 51.370926 -0.335306 7,550 78 280 -704
2022-05-24 13:28:45 GMT 51.370651 -0.337310 7,575 78 280 -704
2022-05-24 13:28:43 GMT 51.370102 -0.341690 7,625 77 281 -704
2022-05-24 13:28:41 GMT 51.369690 -0.345104 7,600 77 280 -640
2022-05-24 13:28:40 GMT 51.369370 -0.347290 7,625 76 281 -640
2022-05-24 13:28:38 GMT 51.368717 -0.351715 7,650 75 280 -704
2022-05-24 13:28:37 GMT 51.368362 -0.353938 7,650 75 280 -704
2022-05-24 13:28:35 GMT 51.367882 -0.357208 7,700 74 279 -704
2022-05-24 13:28:33 GMT 51.367035 -0.361955 7,700 72 280 -704
2022-05-24 13:28:32 GMT 51.366074 -0.366929 7,725 71 280 -640
2022-05-24 13:28:30 GMT 51.366074 -0.366929 7,750 71 279 -640
2022-05-24 13:28:29 GMT 51.365204 -0.371086 7,750 71 280 -640
2022-05-24 13:28:27 GMT 51.364807 -0.372925 7,775 70 279 -640
2022-05-24 13:28:25 GMT 51.363972 -0.376816 7,800 70 279 -512
2022-05-24 13:28:24 GMT 51.363319 -0.379715 7,800 70 279 -512
2022-05-24 13:28:23 GMT 51.362640 -0.382814 7,825 70 279 -448
2022-05-24 13:28:21 GMT 51.362183 -0.384967 7,825 70 278 -512
2022-05-24 13:28:20 GMT 51.361782 -0.386810 7,875 69 279 -768
2022-05-24 13:28:18 GMT 51.360851 -0.391159 7,875 69 279 -768
2022-05-24 13:28:16 GMT 51.359940 -0.395062 7,900 69 279 -512
2022-05-24 13:28:14 GMT 51.359207 -0.398329 7,900 68 278 -512
2022-05-24 13:28:13 GMT 51.358570 -0.401001 7,900 68 278 -512
2022-05-24 13:28:12 GMT 51.358109 -0.402931 7,925 68 279 -512
2022-05-24 13:28:10 GMT 51.357174 -0.406494 7,925 66 278 -576
2022-05-24 13:28:09 GMT 51.356335 -0.409698 7,950 64 278 -576
2022-05-24 13:28:06 GMT 51.354706 -0.415344 7,975 59 276 -384
2022-05-24 13:28:04 GMT 51.353821 -0.417938 7,975 59 276 -384
2022-05-24 13:28:02 GMT 51.352798 -0.420837 8,000 57 275 -192
2022-05-24 13:28:01 GMT 51.352005 -0.422821 8,000 54 275 -192
2022-05-24 13:28:00 GMT 51.350563 -0.426025 8,000 50 273 -256
2022-05-24 13:27:58 GMT 51.348190 -0.430756 8,000 43 271 64
2022-05-24 13:27:56 GMT 51.348190 -0.430756 8,000 43 271 64
2022-05-24 13:27:54 GMT 51.346279 -0.433884 8,000 40 270 -64
2022-05-24 13:27:53 GMT 51.344513 -0.436484 8,000 31 267 -64
2022-05-24 13:27:51 GMT 51.343552 -0.437820 8,000 31 267 -64
2022-05-24 13:27:50 GMT 51.340393 -0.441606 8,025 31 267 -64
2022-05-24 13:27:48 GMT 51.340393 -0.441606 8,025 31 267 -64
2022-05-24 13:27:47 GMT 51.339249 -0.442794 8,025 29 266 0
2022-05-24 13:27:45 GMT 51.337296 -0.444641 8,025 25 265 64
2022-05-24 13:27:44 GMT 51.336136 -0.445614 8,025 23 264 64
2022-05-24 13:27:42 GMT 51.334038 -0.447159 8,000 20 262 64
2022-05-24 13:27:41 GMT 51.332932 -0.447916 8,000 18 263 0
2022-05-24 13:27:39 GMT 51.330593 -0.449219 8,000 14 262 0
2022-05-24 13:27:38 GMT 51.329334 -0.449829 8,000 12 261 0
2022-05-24 13:27:37 GMT 51.328262 -0.450291 8,000 10 260 0
2022-05-24 13:27:35 GMT 51.325836 -0.451108 8,000 7 259 0
2022-05-24 13:27:33 GMT 51.322678 -0.451776 8,000 5 260 0
2022-05-24 13:27:31 GMT 51.321514 -0.451889 8,000 0 259 0
2022-05-24 13:27:29 GMT 51.318970 -0.452073 8,000 359 258 64
2022-05-24 13:27:28 GMT 51.317837 -0.452042 8,000 355 257 64
2022-05-24 13:27:27 GMT 51.314114 -0.451660 8,000 351 256 0
2022-05-24 13:27:25 GMT 51.314114 -0.451660 8,000 349 256 0
2022-05-24 13:27:24 GMT 51.312809 -0.451355 8,000 347 255 0
2022-05-24 13:27:21 GMT 51.309273 -0.450058 8,000 343 255 0
2022-05-24 13:27:19 GMT 51.307159 -0.449029 8,000 337 254 64
2022-05-24 13:27:17 GMT 51.305283 -0.447916 8,000 337 254 64
2022-05-24 13:27:16 GMT 51.303638 -0.446854 8,000 334 254 -64
2022-05-24 13:27:14 GMT 51.302010 -0.445557 8,000 333 253 -64
2022-05-24 13:27:13 GMT 51.300285 -0.444107 8,000 331 252 -64
2022-05-24 13:27:12 GMT 51.299286 -0.443239 8,000 330 252 -64
2022-05-24 13:27:10 GMT 51.297169 -0.441284 8,000 329 251 0
2022-05-24 13:27:09 GMT 51.296188 -0.440292 8,000 328 251 0
2022-05-24 13:27:07 GMT 51.294296 -0.438414 8,000 328 252 0
2022-05-24 13:27:06 GMT 51.293304 -0.437393 8,000 328 251 0
2022-05-24 13:27:03 GMT 51.290909 -0.434999 8,000 328 251 0
2022-05-24 13:27:02 GMT 51.288849 -0.432921 8,000 328 251 0
2022-05-24 13:27:00 GMT 51.286880 -0.430842 8,000 328 251 0
2022-05-24 13:26:58 GMT 51.285828 -0.429803 8,000 327 252 0
2022-05-24 13:26:56 GMT 51.283447 -0.427279 8,000 327 252 0
2022-05-24 13:26:55 GMT 51.282440 -0.426240 8,000 327 252 0
2022-05-24 13:26:53 GMT 51.280689 -0.424347 8,000 327 252 0
2022-05-24 13:26:52 GMT 51.279850 -0.423508 8,000 326 252 0
2022-05-24 13:26:51 GMT 51.278870 -0.422454 8,000 326 252 0
2022-05-24 13:26:49 GMT 51.276672 -0.420079 8,000 326 252 0
2022-05-24 13:26:48 GMT 51.275757 -0.419114 8,000 326 252 0
2022-05-24 13:26:47 GMT 51.273788 -0.416887 8,000 325 251 -64
2022-05-24 13:26:44 GMT 51.271797 -0.414734 8,000 325 252 -64
2022-05-24 13:26:43 GMT 51.270912 -0.413742 8,000 325 252 0
2022-05-24 13:26:41 GMT 51.269028 -0.411542 8,000 325 252 0
2022-05-24 13:26:40 GMT 51.268158 -0.410577 8,000 325 252 0
2022-05-24 13:26:38 GMT 51.265686 -0.407682 8,000 325 252 0
2022-05-24 13:26:36 GMT 51.264397 -0.406189 8,000 325 252 0
2022-05-24 13:26:34 GMT 51.261703 -0.403154 8,000 326 252 0
2022-05-24 13:26:32 GMT 51.260834 -0.402189 8,000 327 252 0
2022-05-24 13:26:31 GMT 51.258316 -0.399442 8,000 328 252 0
2022-05-24 13:26:28 GMT 51.257034 -0.398106 8,025 329 253 0
2022-05-24 13:26:26 GMT 51.253098 -0.394246 8,025 329 253 0
2022-05-24 13:26:24 GMT 51.251640 -0.392838 8,025 328 253 0
2022-05-24 13:26:21 GMT 51.247604 -0.388827 8,000 326 252 64
2022-05-24 13:26:19 GMT 51.247604 -0.388827 8,000 325 252 64
2022-05-24 13:26:18 GMT 51.245132 -0.386080 8,000 320 251 0
2022-05-24 13:26:16 GMT 51.245132 -0.386080 8,000 320 251 0
2022-05-24 13:26:14 GMT 51.243214 -0.383606 8,000 317 250 -64
2022-05-24 13:26:13 GMT 51.242340 -0.382369 8,000 316 249 -64
2022-05-24 13:26:11 GMT 51.240559 -0.379639 8,000 312 248 0
2022-05-24 13:26:10 GMT 51.239777 -0.378360 8,000 311 249 0
2022-05-24 13:26:09 GMT 51.237766 -0.374603 8,000 307 247 64
2022-05-24 13:26:07 GMT 51.236370 -0.371628 8,000 306 248 64
2022-05-24 13:26:05 GMT 51.236370 -0.371628 8,000 303 247 0
2022-05-24 13:26:04 GMT 51.235065 -0.368423 8,000 300 247 0
2022-05-24 13:26:02 GMT 51.234558 -0.367077 8,000 298 246 0
2022-05-24 13:26:01 GMT 51.233952 -0.365372 8,000 296 246 0
2022-05-24 13:25:59 GMT 51.232956 -0.362178 8,000 293 247 0
2022-05-24 13:25:57 GMT 51.231995 -0.358734 8,000 290 247 -64
2022-05-24 13:25:56 GMT 51.231583 -0.357056 8,000 287 247 -64
2022-05-24 13:25:54 GMT 51.230759 -0.353121 8,000 285 247 0
2022-05-24 13:25:53 GMT 51.230270 -0.350418 8,000 282 246 0
2022-05-24 13:25:51 GMT 51.230026 -0.348593 8,000 281 245 0
2022-05-24 13:25:50 GMT 51.229572 -0.344849 8,000 277 245 0
2022-05-24 13:25:48 GMT 51.229385 -0.342803 8,000 276 244 0
2022-05-24 13:25:47 GMT 51.229248 -0.340958 8,000 274 245 0
2022-05-24 13:25:45 GMT 51.229107 -0.337448 8,000 271 245 0
2022-05-24 13:25:44 GMT 51.229111 -0.331743 8,000 267 244 64
2022-05-24 13:25:42 GMT 51.229111 -0.331743 8,000 266 244 64
2022-05-24 13:25:41 GMT 51.229389 -0.327072 8,000 262 244 0
2022-05-24 13:25:39 GMT 51.229389 -0.327072 8,000 261 244 0
2022-05-24 13:25:37 GMT 51.229759 -0.323257 8,000 257 245 0
2022-05-24 13:25:36 GMT 51.230179 -0.320053 8,000 256 246 0
2022-05-24 13:25:34 GMT 51.230507 -0.318222 8,000 252 247 0
2022-05-24 13:25:33 GMT 51.231308 -0.314150 8,000 249 248 0
2022-05-24 13:25:30 GMT 51.231949 -0.311551 8,000 247 247 -64
2022-05-24 13:25:29 GMT 51.232647 -0.308990 8,000 246 248 0
2022-05-24 13:25:27 GMT 51.234146 -0.304203 8,000 241 249 64
2022-05-24 13:25:25 GMT 51.234650 -0.302792 8,000 237 249 64
2022-05-24 13:25:23 GMT 51.235950 -0.299454 8,000 234 250 64
2022-05-24 13:25:22 GMT 51.236618 -0.297967 8,000 232 249 64
2022-05-24 13:25:21 GMT 51.237213 -0.296631 8,000 231 250 64
2022-05-24 13:25:18 GMT 51.240421 -0.290833 7,975 223 253 0
2022-05-24 13:25:16 GMT 51.241306 -0.289459 7,975 219 255 -64
2022-05-24 13:25:15 GMT 51.242142 -0.288239 7,975 217 256 -128
2022-05-24 13:25:14 GMT 51.243122 -0.286942 7,975 217 256 -128
2022-05-24 13:25:12 GMT 51.244984 -0.284653 8,000 214 257 -192
2022-05-24 13:25:10 GMT 51.246918 -0.282527 8,000 212 258 -192
2022-05-24 13:25:09 GMT 51.248520 -0.281042 8,025 209 258 -192
2022-05-24 13:25:08 GMT 51.249115 -0.280448 8,025 207 258 -192
2022-05-24 13:25:06 GMT 51.251408 -0.278625 8,025 204 258 0
2022-05-24 13:25:05 GMT 51.252525 -0.277786 8,025 202 258 0
2022-05-24 13:25:02 GMT 51.258251 -0.274506 8,025 196 257 0
2022-05-24 13:25:00 GMT 51.258251 -0.274506 8,025 193 257 64
2022-05-24 13:24:58 GMT 51.260193 -0.273693 8,025 193 257 64
2022-05-24 13:24:57 GMT 51.261520 -0.273248 8,025 189 255 256
2022-05-24 13:24:56 GMT 51.264675 -0.272369 8,000 186 256 320
2022-05-24 13:24:54 GMT 51.264675 -0.272369 8,000 184 256 192
2022-05-24 13:24:53 GMT 51.267467 -0.272064 8,000 180 258 -128
2022-05-24 13:24:50 GMT 51.269470 -0.271912 7,975 178 259 -256
2022-05-24 13:24:48 GMT 51.274704 -0.272505 8,025 171 260 192
2022-05-24 13:24:46 GMT 51.274704 -0.272505 8,000 169 261 64
2022-05-24 13:24:45 GMT 51.275940 -0.272802 8,000 167 261 128
2022-05-24 13:24:44 GMT 51.277130 -0.273099 8,000 165 261 256
2022-05-24 13:24:43 GMT 51.280643 -0.274582 7,975 161 263 -64
2022-05-24 13:24:41 GMT 51.280643 -0.274582 7,975 159 264 -256
2022-05-24 13:24:39 GMT 51.282806 -0.275772 8,000 154 265 128
2022-05-24 13:24:37 GMT 51.285110 -0.277328 8,000 153 266 128
2022-05-24 13:24:36 GMT 51.286228 -0.278168 8,000 151 266 128
2022-05-24 13:24:34 GMT 51.287888 -0.279558 8,000 151 266 64
2022-05-24 13:24:33 GMT 51.289169 -0.280671 8,000 149 267 0
2022-05-24 13:24:32 GMT 51.291443 -0.282669 8,000 149 267 64
2022-05-24 13:24:30 GMT 51.292465 -0.283661 8,000 148 267 0
2022-05-24 13:24:28 GMT 51.294376 -0.285492 8,000 148 267 0
2022-05-24 13:24:27 GMT 51.295586 -0.286713 8,000 148 267 0
2022-05-24 13:24:26 GMT 51.298145 -0.289078 8,000 148 267 0
2022-05-24 13:24:23 GMT 51.299774 -0.290680 8,000 149 266 0
2022-05-24 13:24:21 GMT 51.302101 -0.292892 8,000 148 265 0
2022-05-24 13:24:18 GMT 51.305374 -0.296037 8,000 148 265 0
2022-05-24 13:24:16 GMT 51.307407 -0.298004 8,000 148 265 0
2022-05-24 13:24:15 GMT 51.308578 -0.299081 8,000 148 265 0
2022-05-24 13:24:13 GMT 51.310619 -0.301056 8,000 148 265 64
2022-05-24 13:24:12 GMT 51.311646 -0.302048 8,000 148 266 64
2022-05-24 13:24:10 GMT 51.313705 -0.304054 8,000 148 266 64
2022-05-24 13:24:09 GMT 51.314758 -0.305093 8,000 148 266 0
2022-05-24 13:24:06 GMT 51.318008 -0.308285 8,000 147 268 0
2022-05-24 13:24:04 GMT 51.320068 -0.310364 8,000 147 268 0
2022-05-24 13:24:03 GMT 51.321259 -0.311551 8,000 147 269 0
2022-05-24 13:24:01 GMT 51.323006 -0.313339 8,000 147 269 0
2022-05-24 13:24:00 GMT 51.325104 -0.315486 8,000 147 269 0
2022-05-24 13:23:58 GMT 51.326172 -0.316620 8,000 147 269 0
2022-05-24 13:23:56 GMT 51.328903 -0.319420 8,000 147 268 -64
2022-05-24 13:23:55 GMT 51.329895 -0.320435 8,000 147 268 -64
2022-05-24 13:23:53 GMT 51.331944 -0.322571 8,025 147 268 0
2022-05-24 13:23:52 GMT 51.333527 -0.324245 8,000 147 267 0
2022-05-24 13:23:50 GMT 51.334763 -0.325433 8,000 147 268 -64
2022-05-24 13:23:49 GMT 51.336639 -0.327363 8,000 148 268 -64
2022-05-24 13:23:47 GMT 51.338333 -0.329070 8,000 148 268 -64
2022-05-24 13:23:45 GMT 51.339809 -0.330582 8,025 148 268 -128
2022-05-24 13:23:44 GMT 51.342270 -0.332930 8,025 148 268 -64
2022-05-24 13:23:42 GMT 51.343254 -0.333862 8,025 147 269 0
2022-05-24 13:23:40 GMT 51.346233 -0.336838 8,025 146 270 128
2022-05-24 13:23:38 GMT 51.347862 -0.338516 8,025 145 270 128
2022-05-24 13:23:37 GMT 51.348450 -0.339166 8,025 144 270 128
2022-05-24 13:23:35 GMT 51.350842 -0.341949 8,000 141 270 0
2022-05-24 13:23:34 GMT 51.351425 -0.342580 8,000 139 270 0
2022-05-24 13:23:32 GMT 51.353485 -0.345327 8,025 135 270 -64
2022-05-24 13:23:30 GMT 51.355270 -0.347999 8,025 134 271 -64
2022-05-24 13:23:29 GMT 51.356140 -0.349410 8,000 130 271 0
2022-05-24 13:23:28 GMT 51.357010 -0.351043 8,000 128 272 0
2022-05-24 13:23:26 GMT 51.358570 -0.354080 8,000 123 273 64
2022-05-24 13:23:24 GMT 51.359875 -0.356903 8,000 123 273 64
2022-05-24 13:23:23 GMT 51.360580 -0.358615 8,000 119 274 0
2022-05-24 13:23:22 GMT 51.361221 -0.360322 8,000 117 275 0
2022-05-24 13:23:19 GMT 51.363922 -0.369230 8,000 112 276 0
2022-05-24 13:23:17 GMT 51.363922 -0.369230 8,000 108 276 64
2022-05-24 13:23:16 GMT 51.364342 -0.371017 8,000 106 276 64
2022-05-24 13:23:13 GMT 51.365414 -0.376663 8,000 102 277 0
2022-05-24 13:23:12 GMT 51.365692 -0.378876 8,000 97 278 -64
2022-05-24 13:23:10 GMT 51.366203 -0.383606 8,000 95 278 -64
2022-05-24 13:23:08 GMT 51.366348 -0.386229 8,000 93 278 -64
2022-05-24 13:23:06 GMT 51.366531 -0.390460 8,000 88 278 -64
2022-05-24 13:23:05 GMT 51.366486 -0.394821 8,025 86 277 -64
2022-05-24 13:23:03 GMT 51.366440 -0.397067 8,025 82 277 -64
2022-05-24 13:23:02 GMT 51.366158 -0.401077 8,025 81 276 0
2022-05-24 13:23:00 GMT 51.365936 -0.403228 8,025 77 274 128
2022-05-24 13:22:59 GMT 51.365479 -0.407088 8,025 76 274 192
2022-05-24 13:22:57 GMT 51.365158 -0.409018 8,000 74 273 192
2022-05-24 13:22:55 GMT 51.364437 -0.413055 8,000 68 271 256
2022-05-24 13:22:54 GMT 51.364014 -0.414957 8,000 68 271 256
2022-05-24 13:22:53 GMT 51.363510 -0.416887 8,000 62 270 -192
2022-05-24 13:22:51 GMT 51.362202 -0.421371 8,000 60 270 -256
2022-05-24 13:22:50 GMT 51.361679 -0.423048 8,000 57 269 -192
2022-05-24 13:22:49 GMT 51.360443 -0.426314 8,025 53 269 -192
2022-05-24 13:22:46 GMT 51.357697 -0.432550 8,025 52 268 -192
2022-05-24 13:22:44 GMT 51.357697 -0.432550 8,000 46 263 128
2022-05-24 13:22:42 GMT 51.354858 -0.437597 8,025 45 263 64
2022-05-24 13:22:41 GMT 51.354858 -0.437597 8,025 43 262 64
2022-05-24 13:22:40 GMT 51.354336 -0.438461 8,000 41 262 64
2022-05-24 13:22:38 GMT 51.352386 -0.441309 8,000 35 260 0
2022-05-24 13:22:36 GMT 51.350372 -0.443833 8,000 34 260 -64
2022-05-24 13:22:35 GMT 51.349319 -0.445021 8,000 32 259 -64
2022-05-24 13:22:33 GMT 51.347717 -0.446802 8,000 29 259 0
2022-05-24 13:22:31 GMT 51.345474 -0.448881 8,000 24 257 0
2022-05-24 13:22:29 GMT 51.342911 -0.450959 8,000 22 257 -64
2022-05-24 13:22:28 GMT 51.341904 -0.451627 8,000 20 256 -64
2022-05-24 13:22:26 GMT 51.339615 -0.453038 8,000 15 256 -64
2022-05-24 13:22:24 GMT 51.337761 -0.454102 8,000 15 256 -64
2022-05-24 13:22:23 GMT 51.336731 -0.454596 8,000 11 256 -64
2022-05-24 13:22:22 GMT 51.335480 -0.455093 8,025 11 256 -64
2022-05-24 13:22:21 GMT 51.332520 -0.456081 8,025 9 255 -64
2022-05-24 13:22:18 GMT 51.330551 -0.456601 8,025 5 255 0
2022-05-24 13:22:16 GMT 51.328079 -0.457077 8,025 3 254 64
2022-05-24 13:22:15 GMT 51.327381 -0.457230 8,000 1 254 64
2022-05-24 13:22:13 GMT 51.324772 -0.457382 8,000 359 254 64
2022-05-24 13:22:12 GMT 51.323563 -0.457458 8,000 358 253 64
2022-05-24 13:22:10 GMT 51.321121 -0.457343 8,000 354 252 128
2022-05-24 13:22:09 GMT 51.319977 -0.457195 8,000 353 252 128
2022-05-24 13:22:08 GMT 51.317368 -0.456675 8,000 349 251 128
2022-05-24 13:22:06 GMT 51.316254 -0.456390 8,000 344 250 128
2022-05-24 13:22:05 GMT 51.315182 -0.456009 8,000 344 250 128
2022-05-24 13:22:02 GMT 51.312344 -0.454865 7,975 340 250 0
2022-05-24 13:22:01 GMT 51.311134 -0.454178 8,000 336 249 -64
2022-05-24 13:22:00 GMT 51.309875 -0.453339 8,000 335 250 -128
2022-05-24 13:21:58 GMT 51.307690 -0.451736 8,000 332 248 -64
2022-05-24 13:21:57 GMT 51.305786 -0.450143 8,000 330 248 -64
2022-05-24 13:21:55 GMT 51.304916 -0.449326 8,000 329 248 -64
2022-05-24 13:21:53 GMT 51.302521 -0.447006 8,000 329 247 0
2022-05-24 13:21:52 GMT 51.301575 -0.446134 8,000 328 247 0
2022-05-24 13:21:51 GMT 51.300659 -0.445175 8,000 328 247 0
2022-05-24 13:21:48 GMT 51.298191 -0.442734 8,000 328 246 0
2022-05-24 13:21:47 GMT 51.297260 -0.441742 8,000 328 246 0
2022-05-24 13:21:46 GMT 51.296173 -0.440641 8,000 328 246 0
2022-05-24 13:21:44 GMT 51.294617 -0.439008 8,000 328 247 0
2022-05-24 13:21:42 GMT 51.292278 -0.436630 8,000 328 247 0
2022-05-24 13:21:41 GMT 51.291321 -0.435667 8,000 328 247 0
2022-05-24 13:21:40 GMT 51.290451 -0.434777 8,000 328 247 0
2022-05-24 13:21:37 GMT 51.287300 -0.431595 8,000 327 247 0
2022-05-24 13:21:36 GMT 51.286423 -0.430620 8,000 327 247 0
2022-05-24 13:21:35 GMT 51.284363 -0.428541 8,000 327 247 0
2022-05-24 13:21:33 GMT 51.283447 -0.427576 8,000 327 247 0
2022-05-24 13:21:32 GMT 51.281013 -0.424957 8,000 327 247 0
2022-05-24 13:21:30 GMT 51.281013 -0.424957 8,000 326 247 0
2022-05-24 13:21:28 GMT 51.278824 -0.422677 8,000 326 247 64
2022-05-24 13:21:27 GMT 51.276127 -0.419693 8,000 326 247 64
2022-05-24 13:21:25 GMT 51.276127 -0.419693 8,000 326 247 64
2022-05-24 13:21:23 GMT 51.273788 -0.417035 8,000 325 247 0
2022-05-24 13:21:21 GMT 51.272961 -0.416107 8,000 324 247 0
2022-05-24 13:21:20 GMT 51.269440 -0.411987 8,000 324 248 0
2022-05-24 13:21:18 GMT 51.269440 -0.411987 8,000 324 247 -64
2022-05-24 13:21:16 GMT 51.267975 -0.410280 8,000 324 247 -64
2022-05-24 13:21:14 GMT 51.265373 -0.407104 8,000 324 246 -64
2022-05-24 13:21:12 GMT 51.263855 -0.405381 8,000 324 247 -64
2022-05-24 13:21:09 GMT 51.261509 -0.402603 8,000 325 247 0
2022-05-24 13:21:07 GMT 51.259647 -0.400467 8,000 327 247 0
2022-05-24 13:21:05 GMT 51.257225 -0.397949 8,000 329 248 0
2022-05-24 13:21:03 GMT 51.255737 -0.396423 8,000 329 248 0
2022-05-24 13:21:01 GMT 51.253830 -0.394543 8,000 329 249 0
2022-05-24 13:21:00 GMT 51.252708 -0.393448 8,025 329 248 0
2022-05-24 13:20:59 GMT 51.251732 -0.392532 8,025 328 248 64
2022-05-24 13:20:57 GMT 51.249756 -0.390609 8,000 327 248 64
2022-05-24 13:20:55 GMT 51.247696 -0.388530 8,000 326 247 64
2022-05-24 13:20:54 GMT 51.246754 -0.387421 8,000 323 247 0
2022-05-24 13:20:52 GMT 51.243122 -0.382996 8,000 319 245 0
2022-05-24 13:20:50 GMT 51.243122 -0.382996 8,000 317 246 0
2022-05-24 13:20:49 GMT 51.242157 -0.381626 8,000 316 245 0
2022-05-24 13:20:48 GMT 51.239914 -0.378063 8,000 312 244 0
2022-05-24 13:20:46 GMT 51.239914 -0.378063 8,000 311 244 0
2022-05-24 13:20:45 GMT 51.238464 -0.375443 8,000 307 242 0
2022-05-24 13:20:43 GMT 51.237762 -0.374129 8,000 306 243 -64
2022-05-24 13:20:41 GMT 51.236435 -0.371234 8,000 303 242 0
2022-05-24 13:20:40 GMT 51.235207 -0.368271 8,000 299 241 0
2022-05-24 13:20:38 GMT 51.234604 -0.366592 8,000 297 242 0
2022-05-24 13:20:37 GMT 51.233532 -0.363312 8,000 294 241 0
2022-05-24 13:20:35 GMT 51.233093 -0.361881 8,000 293 241 0
2022-05-24 13:20:33 GMT 51.232227 -0.358429 8,000 288 241 64
2022-05-24 13:20:32 GMT 51.231766 -0.356536 8,000 286 241 64
2022-05-24 13:20:30 GMT 51.231201 -0.353928 8,000 285 241 64
2022-05-24 13:20:29 GMT 51.230667 -0.350597 8,000 282 240 64
2022-05-24 13:20:27 GMT 51.230392 -0.348890 8,000 280 240 0
2022-05-24 13:20:24 GMT 51.229809 -0.343323 8,000 275 240 0
2022-05-24 13:20:23 GMT 51.229527 -0.338211 8,000 272 241 0
2022-05-24 13:20:21 GMT 51.229527 -0.338211 8,000 271 241 0
2022-05-24 13:20:20 GMT 51.229523 -0.336642 8,000 271 241 0
2022-05-24 13:20:17 GMT 51.229614 -0.331000 8,000 261 242 -64
2022-05-24 13:20:15 GMT 51.229809 -0.327606 8,000 261 242 -64
2022-05-24 13:20:13 GMT 51.230438 -0.321647 8,000 256 241 64
2022-05-24 13:20:11 GMT 51.230644 -0.320053 8,000 255 241 64
2022-05-24 13:20:09 GMT 51.231171 -0.317045 8,000 251 241 64
2022-05-24 13:20:07 GMT 51.231857 -0.313704 8,000 250 241 0
2022-05-24 13:20:06 GMT 51.232368 -0.311661 8,000 247 241 0
2022-05-24 13:20:04 GMT 51.233253 -0.308228 8,000 245 241 0
2022-05-24 13:20:03 GMT 51.234276 -0.305023 8,000 240 241 0
2022-05-24 13:20:01 GMT 51.234833 -0.303421 8,000 239 241 0
2022-05-24 13:20:00 GMT 51.235996 -0.300369 8,000 234 241 0
2022-05-24 13:19:57 GMT 51.237209 -0.297623 8,000 234 241 0
2022-05-24 13:19:55 GMT 51.239227 -0.293587 8,000 227 243 -64
2022-05-24 13:19:53 GMT 51.239914 -0.292400 8,000 225 244 -64
2022-05-24 13:19:52 GMT 51.241562 -0.289579 8,000 224 244 -64
2022-05-24 13:19:50 GMT 51.242470 -0.288239 8,000 220 245 -64
2022-05-24 13:19:48 GMT 51.244263 -0.285867 8,000 217 247 -128
2022-05-24 13:19:46 GMT 51.246891 -0.282745 8,000 213 248 -64
2022-05-24 13:19:44 GMT 51.247787 -0.281784 8,025 210 248 0
2022-05-24 13:19:42 GMT 51.249916 -0.279770 8,025 203 250 64
2022-05-24 13:19:40 GMT 51.251965 -0.278091 8,025 203 250 64
2022-05-24 13:19:39 GMT 51.252594 -0.277627 8,025 203 250 64
2022-05-24 13:19:38 GMT 51.255409 -0.275726 8,025 200 252 0
2022-05-24 13:19:37 GMT 51.255409 -0.275726 8,025 197 252 0
2022-05-24 13:19:35 GMT 51.257690 -0.274506 8,025 195 253 0
2022-05-24 13:19:33 GMT 51.259274 -0.273819 8,000 192 254 -64
2022-05-24 13:19:32 GMT 51.260902 -0.273132 8,025 192 254 -64
2022-05-24 13:19:31 GMT 51.262531 -0.272675 8,025 189 256 0
2022-05-24 13:19:30 GMT 51.263699 -0.272293 8,025 187 256 64
2022-05-24 13:19:27 GMT 51.267197 -0.271689 8,000 181 259 64
2022-05-24 13:19:26 GMT 51.269516 -0.271530 8,000 179 260 64
2022-05-24 13:19:24 GMT 51.270676 -0.271540 8,000 175 261 64
2022-05-24 13:19:23 GMT 51.273102 -0.271759 8,000 167 265 64
2022-05-24 13:19:21 GMT 51.274246 -0.271912 8,000 167 265 64
2022-05-24 13:19:20 GMT 51.277012 -0.272675 8,000 165 265 64
2022-05-24 13:19:17 GMT 51.279007 -0.273322 8,000 161 266 64
2022-05-24 13:19:15 GMT 51.281853 -0.274811 8,000 157 268 0
2022-05-24 13:19:14 GMT 51.283493 -0.275697 8,000 155 268 0
2022-05-24 13:19:12 GMT 51.285156 -0.276947 8,000 152 269 0
2022-05-24 13:19:11 GMT 51.286228 -0.277786 8,000 151 269 0
2022-05-24 13:19:09 GMT 51.288464 -0.279694 8,000 149 270 0
2022-05-24 13:19:08 GMT 51.290588 -0.281636 8,000 148 270 -64
2022-05-24 13:19:06 GMT 51.291676 -0.282669 8,000 148 270 -64
2022-05-24 13:19:04 GMT 51.293884 -0.284902 8,000 148 269 -128
2022-05-24 13:19:03 GMT 51.296127 -0.287129 8,025 148 269 0
2022-05-24 13:19:00 GMT 51.298332 -0.289307 8,000 148 269 128
2022-05-24 13:18:59 GMT 51.298782 -0.289727 8,000 148 268 64
2022-05-24 13:18:58 GMT 51.300381 -0.291367 8,000 148 268 -64
2022-05-24 13:18:55 GMT 51.303497 -0.294418 8,000 148 268 64
2022-05-24 13:18:52 GMT 51.306656 -0.297522 8,000 148 268 64
2022-05-24 13:18:50 GMT 51.308212 -0.299081 8,000 148 267 0
2022-05-24 13:18:49 GMT 51.309265 -0.300120 8,000 147 267 0
2022-05-24 13:18:48 GMT 51.311459 -0.302277 8,000 147 267 0
2022-05-24 13:18:46 GMT 51.312531 -0.303345 8,000 147 267 0
2022-05-24 13:18:45 GMT 51.315647 -0.306473 8,000 147 267 0
2022-05-24 13:18:43 GMT 51.315647 -0.306473 8,000 147 267 0
2022-05-24 13:18:41 GMT 51.317928 -0.308838 8,000 147 267 0
2022-05-24 13:18:39 GMT 51.320847 -0.311848 8,000 147 266 0
2022-05-24 13:18:37 GMT 51.321808 -0.312813 8,000 146 267 -64
2022-05-24 13:18:36 GMT 51.322906 -0.313927 8,000 146 267 -64
2022-05-24 13:18:34 GMT 51.325150 -0.316302 8,000 146 267 0
2022-05-24 13:18:33 GMT 51.326218 -0.317383 8,000 146 267 0
2022-05-24 13:18:31 GMT 51.328445 -0.319717 8,000 147 266 0
2022-05-24 13:18:30 GMT 51.329430 -0.320740 8,000 147 266 -64
2022-05-24 13:18:29 GMT 51.330265 -0.321655 8,000 147 266 -64
2022-05-24 13:18:27 GMT 51.332428 -0.323800 8,000 147 266 -64
2022-05-24 13:18:26 GMT 51.335495 -0.326992 8,025 148 265 -128
2022-05-24 13:18:24 GMT 51.335495 -0.326992 8,025 148 266 -64
2022-05-24 13:18:21 GMT 51.340668 -0.331965 8,025 149 265 64
2022-05-24 13:18:19 GMT 51.340668 -0.331965 8,025 149 265 64
2022-05-24 13:18:17 GMT 51.343861 -0.334930 8,025 148 265 64
2022-05-24 13:18:14 GMT 51.346046 -0.337067 8,025 147 266 64
2022-05-24 13:18:12 GMT 51.348633 -0.339760 8,000 144 267 0
2022-05-24 13:18:10 GMT 51.350006 -0.341244 8,000 140 269 0
2022-05-24 13:18:09 GMT 51.350967 -0.342432 8,000 139 269 0
2022-05-24 13:18:07 GMT 51.352798 -0.344807 8,000 135 270 64
2022-05-24 13:18:05 GMT 51.354286 -0.347061 8,000 133 270 64
2022-05-24 13:18:04 GMT 51.355869 -0.349655 8,000 130 272 0
2022-05-24 13:18:03 GMT 51.356644 -0.350969 8,000 128 272 0
2022-05-24 13:18:02 GMT 51.357468 -0.352528 8,000 125 273 0
2022-05-24 13:17:59 GMT 51.359455 -0.356750 8,000 121 273 0
2022-05-24 13:17:58 GMT 51.360123 -0.358243 8,000 120 273 0
2022-05-24 13:17:55 GMT 51.361908 -0.363217 8,000 116 274 0
2022-05-24 13:17:54 GMT 51.362621 -0.365295 8,000 114 274 0
2022-05-24 13:17:53 GMT 51.363144 -0.367003 8,000 111 274 -64
2022-05-24 13:17:52 GMT 51.364426 -0.372496 8,000 107 273 -128
2022-05-24 13:17:49 GMT 51.365040 -0.375519 8,025 104 273 -64
2022-05-24 13:17:47 GMT 51.365662 -0.379399 8,025 100 272 -64
2022-05-24 13:17:46 GMT 51.365925 -0.381470 8,025 98 272 0
2022-05-24 13:17:44 GMT 51.366299 -0.385513 8,025 95 272 64
2022-05-24 13:17:42 GMT 51.366531 -0.388382 8,025 93 272 0
2022-05-24 13:17:40 GMT 51.366531 -0.396805 8,025 83 271 64
2022-05-24 13:17:38 GMT 51.366531 -0.396805 8,000 83 271 64
2022-05-24 13:17:36 GMT 51.366253 -0.401306 8,000 81 271 64
2022-05-24 13:17:35 GMT 51.366074 -0.403079 8,000 78 271 0
2022-05-24 13:17:33 GMT 51.365601 -0.407028 8,000 74 271 0
2022-05-24 13:17:32 GMT 51.365295 -0.408870 8,000 72 271 0
2022-05-24 13:17:30 GMT 51.364529 -0.412750 8,000 67 270 0
2022-05-24 13:17:29 GMT 51.364155 -0.414658 8,000 61 269 0
2022-05-24 13:17:26 GMT 51.362526 -0.420609 8,000 59 269 64
2022-05-24 13:17:24 GMT 51.361362 -0.424118 8,000 58 269 0
2022-05-24 13:17:23 GMT 51.360764 -0.425720 8,000 56 269 0
2022-05-24 13:17:21 GMT 51.359688 -0.428467 8,000 52 267 0
2022-05-24 13:17:19 GMT 51.358429 -0.431139 8,000 47 266 -64
2022-05-24 13:17:18 GMT 51.357285 -0.433440 8,000 45 266 -64
2022-05-24 13:17:16 GMT 51.355316 -0.436929 8,000 43 265 -64
2022-05-24 13:17:15 GMT 51.354401 -0.438340 8,000 42 265 0
2022-05-24 13:17:13 GMT 51.352985 -0.440521 8,000 40 264 0
2022-05-24 13:17:12 GMT 51.351635 -0.442276 8,000 34 263 0
2022-05-24 13:17:11 GMT 51.350601 -0.443610 8,000 34 263 0
2022-05-24 13:17:09 GMT 51.348816 -0.445689 8,000 27 261 64
2022-05-24 13:17:08 GMT 51.347900 -0.446654 8,000 27 261 64
2022-05-24 13:17:06 GMT 51.345768 -0.448685 8,000 26 260 64
2022-05-24 13:17:05 GMT 51.344650 -0.449600 8,000 24 260 64
2022-05-24 13:17:03 GMT 51.342556 -0.451202 8,000 21 259 0
2022-05-24 13:17:02 GMT 51.341393 -0.451965 8,000 19 258 0
2022-05-24 13:17:00 GMT 51.338970 -0.453415 8,000 16 258 -64
2022-05-24 13:16:59 GMT 51.337948 -0.453949 8,000 14 257 -64
2022-05-24 13:16:58 GMT 51.336739 -0.454559 8,000 13 257 -64
2022-05-24 13:16:57 GMT 51.334316 -0.455475 8,000 10 257 -64
2022-05-24 13:16:54 GMT 51.331848 -0.456238 8,000 8 257 -128
2022-05-24 13:16:53 GMT 51.330780 -0.456526 8,000 6 257 -64
2022-05-24 13:16:52 GMT 51.328358 -0.457001 8,025 4 256 -64
2022-05-24 13:16:50 GMT 51.327026 -0.457195 8,025 1 256 64
2022-05-24 13:16:49 GMT 51.326385 -0.457269 8,000 0 256 128
2022-05-24 13:16:47 GMT 51.323868 -0.457417 8,000 358 255 128
2022-05-24 13:16:46 GMT 51.320351 -0.457153 8,000 354 253 192
2022-05-24 13:16:44 GMT 51.320351 -0.457153 8,000 350 251 128
2022-05-24 13:16:43 GMT 51.319187 -0.457001 8,000 350 251 128
2022-05-24 13:16:41 GMT 51.317417 -0.456543 8,000 347 251 64
2022-05-24 13:16:39 GMT 51.314579 -0.455627 8,000 345 250 64
2022-05-24 13:16:38 GMT 51.313339 -0.455116 8,000 341 249 0
2022-05-24 13:16:36 GMT 51.311600 -0.454178 8,000 339 249 -64
2022-05-24 13:16:35 GMT 51.310455 -0.453557 8,000 331 247 -64
2022-05-24 13:16:33 GMT 51.307877 -0.451660 8,000 333 247 -64
2022-05-24 13:16:31 GMT 51.306385 -0.450439 8,000 331 247 -64
2022-05-24 13:16:30 GMT 51.304989 -0.449219 8,000 330 247 -64
2022-05-24 13:16:29 GMT 51.303917 -0.448303 8,000 329 246 0
2022-05-24 13:16:28 GMT 51.302986 -0.447388 8,000 329 246 0
2022-05-24 13:16:26 GMT 51.300800 -0.445251 8,000 328 246 0
2022-05-24 13:16:24 GMT 51.297134 -0.441606 8,000 328 246 0
2022-05-24 13:16:22 GMT 51.297134 -0.441606 8,000 328 246 0
2022-05-24 13:16:21 GMT 51.294159 -0.438637 8,000 328 247 64
2022-05-24 13:16:19 GMT 51.294159 -0.438637 8,000 328 247 64
2022-05-24 13:16:17 GMT 51.292236 -0.436707 8,000 328 246 64
2022-05-24 13:16:16 GMT 51.291321 -0.435742 8,000 328 246 64
2022-05-24 13:16:13 GMT 51.286560 -0.430916 8,000 328 247 0
2022-05-24 13:16:11 GMT 51.286560 -0.430916 8,000 328 246 -64
2022-05-24 13:16:10 GMT 51.285599 -0.429877 8,000 327 247 -64
2022-05-24 13:16:09 GMT 51.283760 -0.428009 8,000 327 247 0
2022-05-24 13:16:07 GMT 51.282688 -0.426941 8,000 327 246 0
2022-05-24 13:16:04 GMT 51.280289 -0.424384 8,000 327 247 64
2022-05-24 13:16:03 GMT 51.277897 -0.421829 8,000 327 246 0
2022-05-24 13:16:02 GMT 51.277897 -0.421829 8,000 326 246 0
2022-05-24 13:16:00 GMT 51.275940 -0.419707 8,000 326 246 0
2022-05-24 13:15:59 GMT 51.275070 -0.418817 8,000 326 245 0
2022-05-24 13:15:58 GMT 51.273193 -0.416738 8,000 325 246 0
2022-05-24 13:15:56 GMT 51.272324 -0.415773 8,000 325 246 0
2022-05-24 13:15:54 GMT 51.269375 -0.412445 8,000 324 246 0
2022-05-24 13:15:51 GMT 51.266602 -0.409241 8,000 324 246 -64
2022-05-24 13:15:49 GMT 51.265778 -0.408276 8,000 324 246 -64
2022-05-24 13:15:47 GMT 51.264038 -0.406197 8,000 325 247 -64
2022-05-24 13:15:45 GMT 51.262531 -0.404434 8,000 325 247 -64
2022-05-24 13:15:44 GMT 51.261276 -0.403061 8,000 326 247 -64
2022-05-24 13:15:43 GMT 51.260345 -0.401993 8,025 326 247 -64
2022-05-24 13:15:42 GMT 51.257904 -0.399294 8,025 327 248 -64
2022-05-24 13:15:40 GMT 51.257904 -0.399294 8,025 327 248 0
2022-05-24 13:15:38 GMT 51.255569 -0.396770 8,025 328 249 0
2022-05-24 13:15:37 GMT 51.254524 -0.395737 8,025 328 250 0
2022-05-24 13:15:35 GMT 51.252686 -0.393875 8,025 328 250 0
2022-05-24 13:15:33 GMT 51.249710 -0.390980 8,000 327 250 64
2022-05-24 13:15:30 GMT 51.248287 -0.389404 8,000 326 249 64
2022-05-24 13:15:29 GMT 51.247311 -0.388412 8,000 324 249 64
2022-05-24 13:15:28 GMT 51.246414 -0.387417 8,000 323 250 64
2022-05-24 13:15:27 GMT 51.244492 -0.385041 8,000 320 249 64
2022-05-24 13:15:25 GMT 51.243622 -0.383928 8,000 318 249 64
2022-05-24 13:15:23 GMT 51.241959 -0.381546 8,000 315 248 0
2022-05-24 13:15:22 GMT 51.240051 -0.378509 8,000 312 247 0
2022-05-24 13:15:20 GMT 51.239273 -0.377098 8,000 309 246 -64
2022-05-24 13:15:19 GMT 51.238510 -0.375748 8,000 307 246 -64
2022-05-24 13:15:17 GMT 51.237076 -0.372644 8,000 303 244 0
2022-05-24 13:15:16 GMT 51.236343 -0.371011 8,000 303 244 0
2022-05-24 13:15:13 GMT 51.234833 -0.367225 8,000 300 243 64
2022-05-24 13:15:12 GMT 51.234009 -0.364850 8,000 298 243 64
2022-05-24 13:15:10 GMT 51.233002 -0.361510 8,000 293 242 0
2022-05-24 13:15:08 GMT 51.232178 -0.358540 8,000 290 241 0
2022-05-24 13:15:06 GMT 51.231354 -0.354903 8,000 285 240 0
2022-05-24 13:15:04 GMT 51.230804 -0.352082 8,000 285 240 0
2022-05-24 13:15:03 GMT 51.230553 -0.350342 8,000 282 240 -64
2022-05-24 13:15:01 GMT 51.230087 -0.347061 8,000 279 240 0
2022-05-24 13:15:00 GMT 51.229900 -0.345535 8,000 277 239 0
2022-05-24 13:14:58 GMT 51.229614 -0.341838 8,000 272 239 64
2022-05-24 13:14:57 GMT 51.229523 -0.340279 8,000 272 239 64
2022-05-24 13:14:56 GMT 51.229431 -0.336642 8,000 269 239 0
2022-05-24 13:14:54 GMT 51.229431 -0.334935 8,000 267 238 0
2022-05-24 13:14:52 GMT 51.229622 -0.330429 8,000 264 238 0
2022-05-24 13:14:50 GMT 51.229797 -0.327586 8,000 262 238 0
2022-05-24 13:14:49 GMT 51.229935 -0.325878 8,000 259 238 -64
2022-05-24 13:14:48 GMT 51.230087 -0.324326 8,000 258 238 -64
2022-05-24 13:14:46 GMT 51.230598 -0.320740 8,000 254 239 0
2022-05-24 13:14:45 GMT 51.230923 -0.318909 8,000 253 239 0
2022-05-24 13:14:44 GMT 51.231537 -0.315486 8,000 250 239 0
2022-05-24 13:14:41 GMT 51.232224 -0.312591 8,000 248 239 0
2022-05-24 13:14:40 GMT 51.233669 -0.307312 8,000 244 240 0
2022-05-24 13:14:38 GMT 51.233669 -0.307312 8,000 242 240 0
2022-05-24 13:14:36 GMT 51.234833 -0.303980 8,000 238 240 0
2022-05-24 13:14:34 GMT 51.235931 -0.301085 8,000 237 240 0
2022-05-24 13:14:33 GMT 51.236511 -0.299683 8,000 232 241 0
2022-05-24 13:14:32 GMT 51.237396 -0.297775 8,000 232 241 0
2022-05-24 13:14:30 GMT 51.238678 -0.295220 8,000 228 242 0
2022-05-24 13:14:28 GMT 51.240280 -0.292400 8,000 226 243 0
2022-05-24 13:14:26 GMT 51.243256 -0.287871 8,000 221 244 -64
2022-05-24 13:14:24 GMT 51.243256 -0.287871 8,000 217 245 0
2022-05-24 13:14:22 GMT 51.245178 -0.285496 8,000 217 245 0
2022-05-24 13:14:20 GMT 51.246983 -0.283508 8,000 212 247 0
2022-05-24 13:14:19 GMT 51.247913 -0.282593 8,000 209 248 0
2022-05-24 13:14:18 GMT 51.249966 -0.280685 8,000 207 248 0
2022-05-24 13:14:16 GMT 51.251080 -0.279846 8,000 203 250 0
2022-05-24 13:14:15 GMT 51.252045 -0.279186 8,000 202 250 0
2022-05-24 13:14:13 GMT 51.254150 -0.277776 8,000 196 252 64
2022-05-24 13:14:11 GMT 51.257492 -0.275994 8,000 193 253 0
2022-05-24 13:14:09 GMT 51.258808 -0.275345 8,000 191 254 0
2022-05-24 13:14:08 GMT 51.260113 -0.274887 8,000 191 254 0
2022-05-24 13:14:06 GMT 51.262348 -0.274277 8,000 186 256 0
2022-05-24 13:14:05 GMT 51.264771 -0.273842 8,000 182 257 0
2022-05-24 13:14:03 GMT 51.265961 -0.273693 8,000 179 258 -64
2022-05-24 13:14:02 GMT 51.268444 -0.273590 8,000 175 259 -64
2022-05-24 13:14:00 GMT 51.269653 -0.273666 8,000 174 261 -64
2022-05-24 13:13:57 GMT 51.273380 -0.274200 8,000 168 263 0
2022-05-24 13:13:55 GMT 51.275757 -0.274881 8,000 164 265 0
2022-05-24 13:13:54 GMT 51.278130 -0.275803 8,000 159 267 0
2022-05-24 13:13:51 GMT 51.280472 -0.277034 8,000 157 267 0
2022-05-24 13:13:50 GMT 51.283016 -0.278625 8,000 155 268 0
2022-05-24 13:13:48 GMT 51.284042 -0.279335 8,000 151 269 0
2022-05-24 13:13:47 GMT 51.285187 -0.280226 8,000 150 270 -64
2022-05-24 13:13:45 GMT 51.287476 -0.282304 8,000 146 271 -64
2022-05-24 13:13:43 GMT 51.288986 -0.283789 8,000 144 271 -64
2022-05-24 13:13:42 GMT 51.290955 -0.286090 8,000 139 273 -64
2022-05-24 13:13:39 GMT 51.293118 -0.288773 8,025 134 274 0
2022-05-24 13:13:37 GMT 51.294933 -0.291367 8,025 133 275 0
2022-05-24 13:13:35 GMT 51.296703 -0.294266 8,025 127 276 128
2022-05-24 13:13:33 GMT 51.298519 -0.297699 8,025 127 276 128
2022-05-24 13:13:32 GMT 51.299400 -0.299530 8,000 120 276 128
2022-05-24 13:13:31 GMT 51.300201 -0.301307 8,000 120 276 128
2022-05-24 13:13:29 GMT 51.301483 -0.304425 8,000 118 276 128
2022-05-24 13:13:28 GMT 51.302170 -0.306281 8,000 116 276 128
2022-05-24 13:13:26 GMT 51.303360 -0.309918 8,000 114 276 128
2022-05-24 13:13:25 GMT 51.304504 -0.314595 8,000 103 275 0
2022-05-24 13:13:23 GMT 51.304504 -0.314595 8,000 105 275 0
2022-05-24 13:13:22 GMT 51.305687 -0.321808 8,000 103 275 0
2022-05-24 13:13:20 GMT 51.305687 -0.321808 8,000 98 274 -64
2022-05-24 13:13:19 GMT 51.305920 -0.323792 8,000 96 273 -64
2022-05-24 13:13:18 GMT 51.306198 -0.327437 8,000 93 273 -64
2022-05-24 13:13:16 GMT 51.306293 -0.329132 8,000 92 273 -64
2022-05-24 13:13:13 GMT 51.306385 -0.334320 8,000 90 273 0
2022-05-24 13:13:12 GMT 51.306431 -0.341187 8,000 89 273 64
2022-05-24 13:13:10 GMT 51.306431 -0.341187 8,000 89 273 0
2022-05-24 13:13:09 GMT 51.306381 -0.342952 8,000 89 273 0
2022-05-24 13:13:07 GMT 51.306381 -0.347331 8,000 89 273 -64
2022-05-24 13:13:05 GMT 51.306339 -0.351105 8,000 89 272 0
2022-05-24 13:13:04 GMT 51.306339 -0.353012 8,000 89 273 0
2022-05-24 13:13:03 GMT 51.306335 -0.356981 8,000 89 273 0
2022-05-24 13:13:01 GMT 51.306290 -0.358689 8,000 89 273 0
2022-05-24 13:13:00 GMT 51.306293 -0.360718 8,000 89 273 0
2022-05-24 13:12:58 GMT 51.306290 -0.365295 8,000 90 273 0
2022-05-24 13:12:57 GMT 51.306290 -0.367448 8,000 90 273 0
2022-05-24 13:12:56 GMT 51.306290 -0.371308 8,000 90 274 0
2022-05-24 13:12:54 GMT 51.306293 -0.373306 8,000 90 274 0
2022-05-24 13:12:53 GMT 51.306290 -0.375391 8,000 90 274 0
2022-05-24 13:12:51 GMT 51.306335 -0.379622 8,000 90 275 -64
2022-05-24 13:12:50 GMT 51.306335 -0.381849 8,000 90 275 0
2022-05-24 13:12:48 GMT 51.306335 -0.385338 8,000 89 275 0
2022-05-24 13:12:47 GMT 51.306339 -0.387726 8,000 89 275 0
2022-05-24 13:12:46 GMT 51.306339 -0.389709 8,000 89 275 0
2022-05-24 13:12:45 GMT 51.306293 -0.395660 8,000 88 275 0
2022-05-24 13:12:43 GMT 51.306293 -0.395660 8,000 88 275 0
2022-05-24 13:12:42 GMT 51.306198 -0.399857 8,000 87 275 -64
2022-05-24 13:12:40 GMT 51.306152 -0.401966 8,000 87 275 -64
2022-05-24 13:12:38 GMT 51.306061 -0.406036 8,025 86 275 0
2022-05-24 13:12:37 GMT 51.305965 -0.407867 8,025 86 275 0
2022-05-24 13:12:35 GMT 51.305832 -0.411765 8,025 87 275 0
2022-05-24 13:12:33 GMT 51.305695 -0.416070 8,025 87 275 64
2022-05-24 13:12:31 GMT 51.305557 -0.420004 8,025 89 276 64
2022-05-24 13:12:30 GMT 51.305500 -0.423965 8,000 91 276 0
2022-05-24 13:12:26 GMT 51.305557 -0.429135 8,000 92 276 -64
2022-05-24 13:12:25 GMT 51.305595 -0.431442 8,000 93 276 -64
2022-05-24 13:12:24 GMT 51.305740 -0.434777 8,000 94 278 -64
2022-05-24 13:12:21 GMT 51.306061 -0.440521 8,000 99 279 64
2022-05-24 13:12:19 GMT 51.306427 -0.445169 8,000 99 279 64
2022-05-24 13:12:18 GMT 51.306946 -0.449753 8,000 102 280 128
2022-05-24 13:12:15 GMT 51.307175 -0.451736 8,000 103 281 128
2022-05-24 13:12:14 GMT 51.307617 -0.454968 8,000 103 281 128
2022-05-24 13:12:12 GMT 51.308899 -0.462494 7,975 107 283 0
2022-05-24 13:12:10 GMT 51.308899 -0.462494 7,975 108 285 0
2022-05-24 13:12:09 GMT 51.309460 -0.465317 7,975 109 285 0
2022-05-24 13:12:07 GMT 51.310249 -0.469131 7,975 109 287 0
2022-05-24 13:12:05 GMT 51.310902 -0.471954 7,975 110 288 0
2022-05-24 13:12:04 GMT 51.311554 -0.474639 7,975 110 290 0
2022-05-24 13:12:02 GMT 51.313522 -0.483027 8,000 110 291 -64
2022-05-24 13:12:00 GMT 51.313522 -0.483027 8,000 110 292 -64
2022-05-24 13:11:58 GMT 51.314484 -0.487213 8,000 110 293 -64
2022-05-24 13:11:57 GMT 51.314999 -0.489426 8,000 110 293 -64
2022-05-24 13:11:56 GMT 51.315788 -0.492706 8,000 110 293 0
2022-05-24 13:11:54 GMT 51.316299 -0.494766 8,000 110 292 0
2022-05-24 13:11:52 GMT 51.317230 -0.498886 8,000 110 292 0
2022-05-24 13:11:51 GMT 51.317745 -0.500946 8,000 110 292 0
2022-05-24 13:11:50 GMT 51.318256 -0.503082 8,000 110 292 0
2022-05-24 13:11:48 GMT 51.319233 -0.507355 8,000 110 292 0
2022-05-24 13:11:47 GMT 51.319698 -0.509186 8,000 110 292 0
2022-05-24 13:11:46 GMT 51.320663 -0.513314 8,000 110 292 0
2022-05-24 13:11:43 GMT 51.321579 -0.517248 8,000 110 292 0
2022-05-24 13:11:42 GMT 51.322025 -0.519104 8,000 110 293 0
2022-05-24 13:11:41 GMT 51.322998 -0.523187 8,000 110 293 0
2022-05-24 13:11:37 GMT 51.324635 -0.530319 8,000 110 294 64
2022-05-24 13:11:36 GMT 51.324875 -0.531352 8,000 110 294 64
2022-05-24 13:11:35 GMT 51.325378 -0.533371 8,000 110 294 64
2022-05-24 13:11:33 GMT 51.326569 -0.538479 8,000 110 294 0
2022-05-24 13:11:31 GMT 51.327194 -0.541229 8,000 110 294 0
2022-05-24 13:11:30 GMT 51.327667 -0.543081 8,000 110 294 0
2022-05-24 13:11:28 GMT 51.328583 -0.547089 8,000 110 295 0
2022-05-24 13:11:27 GMT 51.329041 -0.548945 8,000 110 295 0
2022-05-24 13:11:25 GMT 51.330128 -0.553665 8,000 110 295 0
2022-05-24 13:11:24 GMT 51.330643 -0.555849 8,000 110 295 0
2022-05-24 13:11:22 GMT 51.332268 -0.562820 8,000 110 295 0
2022-05-24 13:11:19 GMT 51.334030 -0.570250 8,000 110 295 -64
2022-05-24 13:11:17 GMT 51.334030 -0.570250 8,000 110 295 0
2022-05-24 13:11:15 GMT 51.334923 -0.574036 8,000 110 294 0
2022-05-24 13:11:13 GMT 51.335899 -0.578232 8,000 110 294 -64
2022-05-24 13:11:12 GMT 51.336922 -0.582504 8,000 110 295 -64
2022-05-24 13:11:10 GMT 51.337875 -0.586655 8,000 110 295 0
2022-05-24 13:11:08 GMT 51.338379 -0.588882 8,000 110 295 0
2022-05-24 13:11:06 GMT 51.339157 -0.592117 8,000 110 295 0
2022-05-24 13:11:04 GMT 51.340229 -0.596924 8,000 110 295 0
2022-05-24 13:11:03 GMT 51.340649 -0.598755 8,000 110 295 0
2022-05-24 13:11:02 GMT 51.341068 -0.600433 8,000 110 295 0
2022-05-24 13:11:00 GMT 51.342041 -0.604693 8,000 110 294 0
2022-05-24 13:10:59 GMT 51.342545 -0.606846 8,000 110 294 0
2022-05-24 13:10:56 GMT 51.343998 -0.613022 8,000 110 294 0
2022-05-24 13:10:54 GMT 51.344883 -0.616913 8,000 110 295 0
2022-05-24 13:10:52 GMT 51.345840 -0.620950 8,000 110 295 -64
2022-05-24 13:10:51 GMT 51.346344 -0.623029 8,000 110 295 -64
2022-05-24 13:10:49 GMT 51.347260 -0.626907 8,000 110 296 -64
2022-05-24 13:10:48 GMT 51.347912 -0.629730 8,000 110 296 0
2022-05-24 13:10:45 GMT 51.348862 -0.633644 8,000 110 297 0
2022-05-24 13:10:44 GMT 51.350143 -0.639137 8,000 110 297 0
2022-05-24 13:10:42 GMT 51.350655 -0.641251 8,000 110 297 -64
2022-05-24 13:10:40 GMT 51.351727 -0.645599 8,000 110 297 -192
2022-05-24 13:10:38 GMT 51.352432 -0.648639 8,025 110 297 -192
2022-05-24 13:10:37 GMT 51.353119 -0.651608 8,025 110 296 -64
2022-05-24 13:10:35 GMT 51.354034 -0.655468 8,025 110 296 0
2022-05-24 13:10:33 GMT 51.355125 -0.660095 8,025 110 296 192
2022-05-24 13:10:32 GMT 51.355591 -0.662149 8,000 110 296 320
2022-05-24 13:10:30 GMT 51.356567 -0.666351 8,000 110 297 64
2022-05-24 13:10:29 GMT 51.357079 -0.668411 8,000 110 297 64
2022-05-24 13:10:27 GMT 51.357742 -0.671428 8,000 110 297 64
2022-05-24 13:10:26 GMT 51.359482 -0.678777 8,000 110 298 -320
2022-05-24 13:10:24 GMT 51.359482 -0.678777 8,000 110 298 -128
2022-05-24 13:10:23 GMT 51.359848 -0.680484 8,000 110 298 -128
2022-05-24 13:10:22 GMT 51.360340 -0.682602 8,000 110 298 -64
2022-05-24 13:10:19 GMT 51.362247 -0.690765 8,000 110 298 0
2022-05-24 13:10:17 GMT 51.362713 -0.692902 8,000 110 298 0
2022-05-24 13:10:16 GMT 51.363689 -0.697174 8,000 110 298 0
2022-05-24 13:10:14 GMT 51.364109 -0.698853 8,000 110 298 0
2022-05-24 13:10:12 GMT 51.365158 -0.703348 8,000 110 298 0
2022-05-24 13:10:10 GMT 51.366203 -0.707855 8,000 110 299 0
2022-05-24 13:10:09 GMT 51.367088 -0.711670 8,000 110 298 0
2022-05-24 13:10:07 GMT 51.367599 -0.713882 8,000 110 298 0
2022-05-24 13:10:06 GMT 51.368114 -0.716095 8,000 110 298 0
2022-05-24 13:10:03 GMT 51.370022 -0.724258 8,000 110 298 0
2022-05-24 13:10:01 GMT 51.370560 -0.726434 8,000 110 298 0
2022-05-24 13:10:00 GMT 51.371651 -0.731125 8,000 110 298 64
2022-05-24 13:09:58 GMT 51.372116 -0.733109 8,000 110 298 64
2022-05-24 13:09:56 GMT 51.373142 -0.737457 8,000 110 298 0
2022-05-24 13:09:54 GMT 51.374584 -0.743637 8,000 110 300 -64
2022-05-24 13:09:51 GMT 51.375050 -0.745773 8,000 110 300 -64
2022-05-24 13:09:50 GMT 51.375549 -0.747887 8,000 110 301 -64
2022-05-24 13:09:49 GMT 51.376026 -0.749893 8,000 110 301 0
2022-05-24 13:09:47 GMT 51.377243 -0.755162 8,000 110 301 128
2022-05-24 13:09:46 GMT 51.377659 -0.756989 8,000 110 301 0
2022-05-24 13:09:45 GMT 51.378120 -0.759048 8,000 110 303 0
2022-05-24 13:09:42 GMT 51.379566 -0.765076 8,000 110 303 0
2022-05-24 13:09:40 GMT 51.380539 -0.769414 8,000 110 303 0
2022-05-24 13:09:38 GMT 51.381683 -0.774165 8,000 110 303 0
2022-05-24 13:09:36 GMT 51.382507 -0.777728 8,000 110 303 0
2022-05-24 13:09:34 GMT 51.383377 -0.781588 8,000 110 303 0
2022-05-24 13:09:32 GMT 51.384499 -0.786362 8,000 110 303 -64
2022-05-24 13:09:31 GMT 51.385944 -0.792389 8,000 110 304 -64
2022-05-24 13:09:29 GMT 51.385944 -0.792389 8,000 110 304 -64
2022-05-24 13:09:28 GMT 51.387432 -0.798874 8,000 110 302 0
2022-05-24 13:09:26 GMT 51.387432 -0.798874 8,000 110 302 64
2022-05-24 13:09:24 GMT 51.389015 -0.805817 8,000 110 302 0
2022-05-24 13:09:22 GMT 51.389465 -0.807718 8,000 110 301 0
2022-05-24 13:09:20 GMT 51.390472 -0.812097 8,000 110 301 64
2022-05-24 13:09:18 GMT 51.391388 -0.816040 8,000 110 301 -64
2022-05-24 13:09:17 GMT 51.392414 -0.820618 8,000 110 301 0
2022-05-24 13:09:14 GMT 51.392990 -0.822935 8,000 110 301 0
2022-05-24 13:09:13 GMT 51.393669 -0.825882 8,000 110 301 0
2022-05-24 13:09:12 GMT 51.394180 -0.828057 8,000 110 301 -64
2022-05-24 13:09:10 GMT 51.395348 -0.833206 8,000 110 302 0
2022-05-24 13:09:09 GMT 51.395763 -0.835037 8,000 110 302 64
2022-05-24 13:09:07 GMT 51.396698 -0.839044 8,000 110 302 -128
2022-05-24 13:09:06 GMT 51.397247 -0.841419 8,000 110 302 -128
2022-05-24 13:09:04 GMT 51.398186 -0.845642 8,000 109 302 -64
2022-05-24 13:09:02 GMT 51.399307 -0.850550 8,025 109 302 -64
2022-05-24 13:09:01 GMT 51.399307 -0.850550 8,025 109 301 0
2022-05-24 13:09:00 GMT 51.400002 -0.853653 8,025 109 301 0
2022-05-24 13:08:57 GMT 51.401276 -0.859235 8,025 109 300 64
2022-05-24 13:08:55 GMT 51.402050 -0.862579 8,025 109 300 64
2022-05-24 13:08:54 GMT 51.403015 -0.866955 8,000 109 300 -64
2022-05-24 13:08:51 GMT 51.404297 -0.872522 8,025 109 300 -64
2022-05-24 13:08:49 GMT 51.405216 -0.876617 8,025 109 299 64
2022-05-24 13:08:48 GMT 51.406128 -0.880762 8,025 109 299 128
2022-05-24 13:08:46 GMT 51.406567 -0.882721 8,000 109 299 192
2022-05-24 13:08:45 GMT 51.407356 -0.886230 8,000 109 299 192
2022-05-24 13:08:43 GMT 51.408009 -0.889130 8,000 110 299 0
2022-05-24 13:08:42 GMT 51.408554 -0.891451 8,000 110 300 -192
2022-05-24 13:08:40 GMT 51.409515 -0.895683 8,000 110 301 0
2022-05-24 13:08:39 GMT 51.410011 -0.897675 8,000 110 301 128
2022-05-24 13:08:37 GMT 51.410988 -0.901871 8,000 110 301 -128
2022-05-24 13:08:36 GMT 51.411732 -0.904922 8,000 110 301 -256
2022-05-24 13:08:33 GMT 51.413177 -0.911179 8,025 110 299 -192
2022-05-24 13:08:31 GMT 51.413910 -0.914315 8,025 110 299 448
2022-05-24 13:08:29 GMT 51.414688 -0.917655 8,025 110 299 768
2022-05-24 13:08:28 GMT 51.415222 -0.920029 7,950 110 297 512
2022-05-24 13:08:26 GMT 51.416519 -0.925450 7,950 110 297 448
2022-05-24 13:08:25 GMT 51.416794 -0.926712 7,950 110 297 512
2022-05-24 13:08:23 GMT 51.417786 -0.931091 7,925 110 296 576
2022-05-24 13:08:22 GMT 51.418484 -0.933990 7,925 110 296 512
2022-05-24 13:08:21 GMT 51.419228 -0.937119 7,925 110 296 448
2022-05-24 13:08:19 GMT 51.419952 -0.940296 7,900 110 295 448
2022-05-24 13:08:17 GMT 51.420578 -0.943146 7,875 110 295 576
2022-05-24 13:08:15 GMT 51.421417 -0.946606 7,875 110 295 448
2022-05-24 13:08:14 GMT 51.421829 -0.948462 7,875 110 295 384
2022-05-24 13:08:13 GMT 51.422745 -0.952322 7,825 110 294 512
2022-05-24 13:08:10 GMT 51.423935 -0.957666 7,825 110 294 512
2022-05-24 13:08:09 GMT 51.424347 -0.959473 7,825 110 293 512
2022-05-24 13:08:08 GMT 51.424805 -0.961452 7,825 110 294 512
2022-05-24 13:08:06 GMT 51.425720 -0.965461 7,800 110 294 512
2022-05-24 13:08:04 GMT 51.426636 -0.969469 7,775 110 294 512
2022-05-24 13:08:03 GMT 51.427139 -0.971548 7,775 110 294 448
2022-05-24 13:08:01 GMT 51.428055 -0.975556 7,750 110 295 448
2022-05-24 13:07:59 GMT 51.428909 -0.979233 7,750 110 295 512
2022-05-24 13:07:57 GMT 51.429657 -0.982311 7,725 110 295 448
2022-05-24 13:07:55 GMT 51.430912 -0.987854 7,700 110 296 512
2022-05-24 13:07:54 GMT 51.432449 -0.994263 7,675 110 296 512
2022-05-24 13:07:52 GMT 51.432449 -0.994263 7,675 110 296 512
2022-05-24 13:07:51 GMT 51.432861 -0.996193 7,675 110 296 448
2022-05-24 13:07:49 GMT 51.434170 -1.001740 7,650 110 296 448
2022-05-24 13:07:48 GMT 51.434402 -1.002731 7,650 110 296 448
2022-05-24 13:07:47 GMT 51.435287 -1.006546 7,625 110 296 448
2022-05-24 13:07:45 GMT 51.435745 -1.008367 7,625 110 297 448
2022-05-24 13:07:43 GMT 51.436729 -1.012726 7,600 110 297 512
2022-05-24 13:07:41 GMT 51.437660 -1.016617 7,600 110 297 512
2022-05-24 13:07:40 GMT 51.438171 -1.018685 7,575 110 298 448
2022-05-24 13:07:38 GMT 51.439243 -1.023254 7,550 110 298 512
2022-05-24 13:07:37 GMT 51.440174 -1.027145 7,550 110 299 512
2022-05-24 13:07:35 GMT 51.440643 -1.029205 7,550 110 298 512
2022-05-24 13:07:33 GMT 51.441650 -1.033531 7,525 110 298 512
2022-05-24 13:07:31 GMT 51.443069 -1.039767 7,500 110 298 512
2022-05-24 13:07:28 GMT 51.443760 -1.042786 7,500 110 298 512
2022-05-24 13:07:26 GMT 51.444832 -1.047363 7,475 110 298 512
2022-05-24 13:07:24 GMT 51.445763 -1.051407 7,400 110 297 576
2022-05-24 13:07:22 GMT 51.446602 -1.054993 7,400 110 297 576
2022-05-24 13:07:21 GMT 51.447144 -1.057360 7,425 110 297 512
2022-05-24 13:07:20 GMT 51.448013 -1.061220 7,400 109 296 512
2022-05-24 13:07:17 GMT 51.448883 -1.064987 7,400 109 296 512
2022-05-24 13:07:16 GMT 51.449348 -1.066895 7,375 109 296 512
2022-05-24 13:07:14 GMT 51.450325 -1.071320 7,375 109 296 512
2022-05-24 13:07:13 GMT 51.450851 -1.073617 7,350 109 295 512
2022-05-24 13:07:12 GMT 51.451309 -1.075621 7,350 109 295 512
2022-05-24 13:07:11 GMT 51.452179 -1.079704 7,325 109 295 448
2022-05-24 13:07:09 GMT 51.452637 -1.081634 7,325 109 295 512
2022-05-24 13:07:08 GMT 51.453537 -1.085739 7,325 109 294 512
2022-05-24 13:07:06 GMT 51.454048 -1.088028 7,300 109 294 512
2022-05-24 13:07:05 GMT 51.454559 -1.090393 7,275 109 294 448
2022-05-24 13:07:03 GMT 51.455490 -1.094437 7,275 109 293 512
2022-05-24 13:07:02 GMT 51.455978 -1.096480 7,275 110 292 512
2022-05-24 13:07:01 GMT 51.456390 -1.098262 7,250 110 292 512
2022-05-24 13:07:00 GMT 51.457306 -1.102371 7,250 110 291 512
2022-05-24 13:06:58 GMT 51.458313 -1.106724 7,225 110 292 512
2022-05-24 13:06:56 GMT 51.458862 -1.109025 7,225 111 292 512
2022-05-24 13:06:54 GMT 51.459915 -1.113358 7,200 110 292 512
2022-05-24 13:06:53 GMT 51.460419 -1.115409 7,175 110 292 512
2022-05-24 13:06:52 GMT 51.461311 -1.119156 7,175 109 292 512
2022-05-24 13:06:50 GMT 51.462341 -1.123649 7,150 108 292 512
2022-05-24 13:06:48 GMT 51.462753 -1.125727 7,125 108 292 512
2022-05-24 13:06:47 GMT 51.463684 -1.130295 7,125 106 292 512
2022-05-24 13:06:45 GMT 51.464058 -1.132202 7,100 106 292 512
2022-05-24 13:06:43 GMT 51.464813 -1.136343 7,100 104 292 448
2022-05-24 13:06:42 GMT 51.465130 -1.138382 7,100 103 291 384
2022-05-24 13:06:40 GMT 51.465683 -1.141687 7,075 102 291 448
2022-05-24 13:06:38 GMT 51.466278 -1.146141 7,050 100 291 448
2022-05-24 13:06:36 GMT 51.466644 -1.149185 7,050 99 290 448
2022-05-24 13:06:35 GMT 51.466896 -1.151276 7,050 98 290 384
2022-05-24 13:06:34 GMT 51.467270 -1.155243 7,025 96 290 384
2022-05-24 13:06:32 GMT 51.467457 -1.157608 7,025 95 289 320
2022-05-24 13:06:30 GMT 51.467697 -1.161730 7,025 93 289 256
2022-05-24 13:06:29 GMT 51.467781 -1.163635 7,025 92 290 192
2022-05-24 13:06:28 GMT 51.467926 -1.168040 7,000 90 290 192
2022-05-24 13:06:26 GMT 51.467922 -1.170578 7,000 89 290 128
2022-05-24 13:06:24 GMT 51.467876 -1.174622 7,000 87 291 64
2022-05-24 13:06:23 GMT 51.467781 -1.177673 7,000 86 291 0
2022-05-24 13:06:21 GMT 51.467594 -1.181564 7,000 85 291 64
2022-05-24 13:06:20 GMT 51.467514 -1.183628 7,000 85 292 64
2022-05-24 13:06:18 GMT 51.467270 -1.188126 7,000 84 292 0
2022-05-24 13:06:17 GMT 51.467037 -1.192474 7,000 84 292 -128
2022-05-24 13:06:15 GMT 51.466896 -1.194687 7,000 84 292 -128
2022-05-24 13:06:13 GMT 51.466553 -1.199811 7,000 83 293 64
2022-05-24 13:06:11 GMT 51.466339 -1.203384 7,000 84 293 128
2022-05-24 13:06:10 GMT 51.466187 -1.205750 7,000 84 293 64
2022-05-24 13:06:09 GMT 51.465874 -1.210251 7,000 84 293 64
2022-05-24 13:06:06 GMT 51.465546 -1.215286 7,000 84 293 -64
2022-05-24 13:06:05 GMT 51.465408 -1.217627 7,000 84 293 -64
2022-05-24 13:06:03 GMT 51.465179 -1.221412 7,000 83 293 -128
2022-05-24 13:06:01 GMT 51.464893 -1.225815 7,000 83 293 -128
2022-05-24 13:06:00 GMT 51.464569 -1.230164 7,000 83 293 0
2022-05-24 13:05:58 GMT 51.464432 -1.232300 7,000 83 294 -128
2022-05-24 13:05:56 GMT 51.464218 -1.235888 7,000 84 293 64
2022-05-24 13:05:53 GMT 51.463852 -1.241232 7,000 83 293 -64
2022-05-24 13:05:52 GMT 51.463638 -1.244659 7,025 84 293 -128
2022-05-24 13:05:51 GMT 51.463497 -1.246643 7,025 84 292 0
2022-05-24 13:05:48 GMT 51.463081 -1.253510 7,025 84 292 192
2022-05-24 13:05:47 GMT 51.462616 -1.260310 7,025 84 292 256
2022-05-24 13:05:45 GMT 51.462616 -1.260310 7,000 84 292 128
2022-05-24 13:05:44 GMT 51.462479 -1.262760 7,000 84 292 0
2022-05-24 13:05:42 GMT 51.462250 -1.266545 7,025 84 292 -128
2022-05-24 13:05:41 GMT 51.462101 -1.268768 7,025 84 292 128
2022-05-24 13:05:39 GMT 51.461823 -1.273193 7,000 85 292 0
2022-05-24 13:05:38 GMT 51.461563 -1.278200 7,025 85 291 -128
2022-05-24 13:05:35 GMT 51.461220 -1.285782 7,025 88 292 128
2022-05-24 13:05:33 GMT 51.461220 -1.285782 7,025 88 292 128
2022-05-24 13:05:30 GMT 51.461124 -1.291275 7,000 91 292 64
2022-05-24 13:05:29 GMT 51.461105 -1.294605 7,000 91 292 64
2022-05-24 13:05:28 GMT 51.461170 -1.297607 7,000 98 291 64
2022-05-24 13:05:26 GMT 51.461380 -1.302325 7,000 98 291 64
2022-05-24 13:05:24 GMT 51.461823 -1.307602 7,000 103 290 0
2022-05-24 13:05:22 GMT 51.462112 -1.309897 7,000 103 290 0
2022-05-24 13:05:20 GMT 51.462753 -1.314128 7,000 107 289 0
2022-05-24 13:05:19 GMT 51.463360 -1.317291 7,000 108 288 0
2022-05-24 13:05:18 GMT 51.464310 -1.321700 7,000 112 287 0
2022-05-24 13:05:14 GMT 51.465408 -1.325836 7,000 119 286 64
2022-05-24 13:05:13 GMT 51.467270 -1.331558 7,000 121 286 0
2022-05-24 13:05:11 GMT 51.467270 -1.331558 7,000 122 286 0
2022-05-24 13:05:10 GMT 51.468758 -1.335220 7,000 126 286 0
2022-05-24 13:05:07 GMT 51.470306 -1.338699 7,000 131 285 0
2022-05-24 13:05:05 GMT 51.471680 -1.341371 7,000 131 285 0
2022-05-24 13:05:04 GMT 51.472870 -1.343747 7,000 133 285 -64
2022-05-24 13:05:02 GMT 51.474205 -1.345901 7,000 136 285 -64
2022-05-24 13:05:00 GMT 51.477356 -1.350502 7,025 141 283 0
2022-05-24 13:04:57 GMT 51.479607 -1.353378 7,025 147 281 -64
2022-05-24 13:04:55 GMT 51.481705 -1.355698 7,025 148 281 -64
2022-05-24 13:04:54 GMT 51.485424 -1.359100 7,000 152 280 0
2022-05-24 13:04:52 GMT 51.485424 -1.359100 7,025 154 280 0
2022-05-24 13:04:51 GMT 51.486511 -1.359929 7,025 157 279 0
2022-05-24 13:04:49 GMT 51.488731 -1.361542 7,025 164 279 -128
2022-05-24 13:04:47 GMT 51.491364 -1.363047 7,025 164 279 -128
2022-05-24 13:04:45 GMT 51.495667 -1.364903 7,025 168 279 -128
2022-05-24 13:04:41 GMT 51.497807 -1.365585 7,025 173 277 -128
2022-05-24 13:04:40 GMT 51.500427 -1.366091 7,050 177 277 -192
2022-05-24 13:04:38 GMT 51.501766 -1.366272 7,050 179 277 -192
2022-05-24 13:04:36 GMT 51.504700 -1.366348 7,050 183 276 -256
2022-05-24 13:04:35 GMT 51.505875 -1.366313 7,050 185 275 -256
2022-05-24 13:04:34 GMT 51.508327 -1.366043 7,075 189 276 -384
2022-05-24 13:04:32 GMT 51.509628 -1.365794 7,075 194 276 -512
2022-05-24 13:04:31 GMT 51.511368 -1.365422 7,075 194 276 -512
2022-05-24 13:04:30 GMT 51.512520 -1.365051 7,100 196 275 -576
2022-05-24 13:04:28 GMT 51.515125 -1.363983 7,100 200 274 -704
2022-05-24 13:04:25 GMT 51.518894 -1.361847 7,450 206 273 -960
2022-05-24 13:04:23 GMT 51.521255 -1.360152 7,200 209 272 -1152
2022-05-24 13:04:22 GMT 51.521969 -1.359711 7,200 211 271 -1280
2022-05-24 13:04:20 GMT 51.524624 -1.357193 7,275 215 270 -1600
2022-05-24 13:04:19 GMT 51.525650 -1.356143 7,300 217 269 -1664
2022-05-24 13:04:18 GMT 51.526623 -1.355057 7,325 219 268 -1856
2022-05-24 13:04:15 GMT 51.528442 -1.352803 7,425 222 266 -2112
2022-05-24 13:04:14 GMT 51.530628 -1.349640 7,450 254 257 -2560
2022-05-24 13:04:12 GMT 51.531559 -1.348190 7,525 228 263 -2240
2022-05-24 13:04:10 GMT 51.533157 -1.345454 7,625 231 261 -2240
2022-05-24 13:04:09 GMT 51.533569 -1.344637 7,625 233 260 -2368
2022-05-24 13:04:07 GMT 51.535126 -1.341446 7,675 237 259 -2624
2022-05-24 13:04:06 GMT 51.535812 -1.339812 7,725 239 258 -2688
2022-05-24 13:04:05 GMT 51.537140 -1.336324 7,800 245 257 -2752
2022-05-24 13:04:03 GMT 51.537735 -1.334616 7,900 245 257 -2752
2022-05-24 13:04:02 GMT 51.538147 -1.333206 7,950 247 258 -2752
2022-05-24 13:04:01 GMT 51.539108 -1.329791 7,975 250 257 -2688
2022-05-24 13:03:59 GMT 51.539749 -1.327209 8,075 252 257 -2624
2022-05-24 13:03:58 GMT 51.540115 -1.325337 8,125 256 257 -2560
2022-05-24 13:03:57 GMT 51.540962 -1.320038 8,350 265 258 -2432
2022-05-24 13:03:55 GMT 51.540962 -1.320038 8,350 265 258 -2432
2022-05-24 13:03:53 GMT 51.541473 -1.315231 8,350 265 258 -2432
2022-05-24 13:03:51 GMT 51.541706 -1.311417 8,425 272 259 -2304
2022-05-24 13:03:50 GMT 51.541763 -1.309600 8,475 272 259 -2304
2022-05-24 13:03:48 GMT 51.541763 -1.305666 8,600 273 259 -2240
2022-05-24 13:03:46 GMT 51.541706 -1.302567 8,700 277 260 -2112
2022-05-24 13:03:44 GMT 51.541397 -1.298020 8,700 277 260 -2112
2022-05-24 13:03:43 GMT 51.541241 -1.295853 8,725 279 262 -1856
2022-05-24 13:03:41 GMT 51.540894 -1.292155 8,800 281 264 -1792
2022-05-24 13:03:39 GMT 51.540298 -1.287033 8,875 282 267 -1664
2022-05-24 13:03:37 GMT 51.540070 -1.285103 8,900 282 268 -1600
2022-05-24 13:03:35 GMT 51.539566 -1.281204 8,950 282 270 -1408
2022-05-24 13:03:34 GMT 51.539337 -1.279165 8,975 282 270 -1472
2022-05-24 13:03:33 GMT 51.538834 -1.275379 9,000 282 271 -1536
2022-05-24 13:03:31 GMT 51.538589 -1.273270 9,050 282 273 -1536
2022-05-24 13:03:30 GMT 51.538330 -1.271371 9,075 282 274 -1472
2022-05-24 13:03:28 GMT 51.537827 -1.267436 9,125 282 276 -1408
2022-05-24 13:03:27 GMT 51.537563 -1.265259 9,150 282 277 -1408
2022-05-24 13:03:26 GMT 51.537094 -1.261275 9,200 282 280 -1344
2022-05-24 13:03:23 GMT 51.536678 -1.258087 9,225 282 281 -1344
2022-05-24 13:03:21 GMT 51.536179 -1.254000 9,300 282 284 -1408
2022-05-24 13:03:19 GMT 51.535423 -1.248245 9,350 282 286 -1408
2022-05-24 13:03:17 GMT 51.535172 -1.246206 9,425 282 290 -1600
2022-05-24 13:03:14 GMT 51.534210 -1.238785 9,450 283 291 -1664
2022-05-24 13:03:13 GMT 51.533421 -1.233063 9,500 283 293 -1728
2022-05-24 13:03:11 GMT 51.533421 -1.233063 9,575 283 294 -1728
2022-05-24 13:03:09 GMT 51.532791 -1.228539 9,625 283 295 -1792
2022-05-24 13:03:08 GMT 51.532536 -1.226273 9,625 283 297 -1856
2022-05-24 13:03:07 GMT 51.532211 -1.224060 9,650 283 298 -1920
2022-05-24 13:03:05 GMT 51.531651 -1.219940 9,750 283 300 -1984
2022-05-24 13:03:03 GMT 51.530731 -1.213321 9,825 283 302 -2048
2022-05-24 13:03:01 GMT 51.530441 -1.211014 9,850 283 303 -1984
2022-05-24 13:03:00 GMT 51.530045 -1.208125 9,900 283 305 -1920
2022-05-24 13:02:59 GMT 51.529743 -1.205902 9,925 283 306 -1856
2022-05-24 13:02:57 GMT 51.529129 -1.201370 9,975 283 308 -1408
2022-05-24 13:02:56 GMT 51.528580 -1.197205 10,025 283 312 -1536
2022-05-24 13:02:53 GMT 51.528168 -1.194169 10,100 283 312 -1536
2022-05-24 13:02:52 GMT 51.527527 -1.189641 10,100 283 315 -1024
2022-05-24 13:02:50 GMT 51.527252 -1.187414 10,150 283 316 -832
2022-05-24 13:02:49 GMT 51.526718 -1.183701 10,150 283 317 -768
2022-05-24 13:02:47 GMT 51.526291 -1.180511 10,250 283 328 -832
2022-05-24 13:02:46 GMT 51.525970 -1.177979 10,175 283 319 -832
2022-05-24 13:02:44 GMT 51.525318 -1.173096 10,200 283 321 -832
2022-05-24 13:02:42 GMT 51.524460 -1.166926 10,275 283 325 -704
2022-05-24 13:02:39 GMT 51.523506 -1.159821 10,300 283 328 -768
2022-05-24 13:02:36 GMT 51.522945 -1.155472 10,300 283 328 -832
2022-05-24 13:02:34 GMT 51.522106 -1.149063 10,350 283 331 -896
2022-05-24 13:02:32 GMT 51.521317 -1.143341 10,750 283 333 -768
2022-05-24 13:02:29 GMT 51.520618 -1.138382 10,400 283 336 -832
2022-05-24 13:02:27 GMT 51.519791 -1.132408 10,425 283 336 -832
2022-05-24 13:02:24 GMT 51.518848 -1.125259 10,600 283 350 -1728
2022-05-24 13:02:21 GMT 51.517220 -1.113281 10,525 283 341 -1152
2022-05-24 13:02:19 GMT 51.517220 -1.113281 10,650 283 343 -1664
2022-05-24 13:02:17 GMT 51.516495 -1.107763 11,650 283 347 -1728
2022-05-24 13:02:14 GMT 51.515442 -1.099895 10,700 283 344 -1856
2022-05-24 13:02:11 GMT 51.513428 -1.085197 10,875 283 347 -1792
2022-05-24 13:02:08 GMT 51.513428 -1.085197 10,875 283 347 -1792
2022-05-24 13:02:06 GMT 51.512787 -1.080298 10,950 283 347 -1728
2022-05-24 13:02:03 GMT 51.511688 -1.072429 11,000 283 350 -1728
2022-05-24 13:02:01 GMT 51.511028 -1.067581 11,125 283 351 -1856
2022-05-24 13:01:58 GMT 51.509956 -1.059723 11,125 283 352 -1856
2022-05-24 13:01:56 GMT 51.509583 -1.056840 11,175 283 352 -1984
2022-05-24 13:01:54 GMT 51.508575 -1.049343 11,325 283 352 -2368
2022-05-24 13:01:51 GMT 51.507492 -1.041412 11,475 283 350 -2880
2022-05-24 13:01:48 GMT 51.506561 -1.034698 11,550 283 349 -3008
2022-05-24 13:01:46 GMT 51.505875 -1.029523 11,775 283 349 -2816
2022-05-24 13:01:43 GMT 51.504959 -1.022619 11,775 283 349 -2752
2022-05-24 13:01:41 GMT 51.503906 -1.014786 11,900 283 349 -1920
2022-05-24 13:01:38 GMT 51.502121 -1.001166 11,975 282 352 -704
2022-05-24 13:01:36 GMT 51.502121 -1.001166 11,900 282 350 2560
2022-05-24 13:01:33 GMT 51.501526 -0.996490 11,900 282 351 2496
2022-05-24 13:01:31 GMT 51.500839 -0.991442 11,875 282 351 2496
2022-05-24 13:01:29 GMT 51.500061 -0.985132 11,700 282 347 1984
2022-05-24 13:01:26 GMT 51.498825 -0.975853 11,625 282 347 1984
2022-05-24 13:01:23 GMT 51.498184 -0.970731 11,525 282 345 1664
2022-05-24 13:01:21 GMT 51.497452 -0.965312 11,475 282 342 1216
2022-05-24 13:01:18 GMT 51.496628 -0.958780 11,425 282 339 832
2022-05-24 13:01:16 GMT 51.496124 -0.954623 11,400 283 331 1088
2022-05-24 13:01:14 GMT 51.495571 -0.950623 11,400 283 334 640
2022-05-24 13:01:12 GMT 51.494968 -0.945816 11,250 283 330 1152
2022-05-24 13:01:10 GMT 51.493835 -0.937401 11,300 283 327 1280
2022-05-24 13:01:07 GMT 51.493107 -0.932312 11,250 283 325 1280
2022-05-24 13:01:05 GMT 51.492359 -0.927124 11,175 285 319 1344
2022-05-24 13:01:02 GMT 51.491428 -0.921021 11,100 285 318 1344
2022-05-24 13:01:00 GMT 51.489624 -0.909861 11,075 285 316 1216
2022-05-24 13:00:58 GMT 51.489624 -0.909861 11,000 286 312 1152
2022-05-24 13:00:55 GMT 51.487614 -0.898056 10,950 286 306 1088
2022-05-24 13:00:52 GMT 51.487614 -0.898056 10,750 286 292 1088
2022-05-24 13:00:50 GMT 51.486877 -0.893753 10,875 286 301 960
2022-05-24 13:00:47 GMT 51.485870 -0.887666 10,850 286 299 1024
2022-05-24 13:00:45 GMT 51.484634 -0.880539 10,775 286 292 1088
2022-05-24 13:00:42 GMT 51.482941 -0.870444 10,725 286 291 1088
2022-05-24 13:00:40 GMT 51.482941 -0.870444 10,700 286 290 1088
2022-05-24 13:00:37 GMT 51.482025 -0.865025 10,650 286 286 1088
2022-05-24 13:00:34 GMT 51.481155 -0.859903 10,550 285 269 1664
2022-05-24 13:00:31 GMT 51.479328 -0.849152 10,550 286 277 1216
2022-05-24 13:00:29 GMT 51.479328 -0.849152 10,500 286 276 1216
2022-05-24 13:00:26 GMT 51.478210 -0.842438 10,450 285 271 1536
2022-05-24 13:00:23 GMT 51.477402 -0.837485 10,325 285 267 2624
2022-05-24 13:00:21 GMT 51.476898 -0.834590 10,350 285 269 2048
2022-05-24 13:00:19 GMT 51.476074 -0.829468 10,225 285 268 2560
2022-05-24 13:00:17 GMT 51.475525 -0.826127 10,150 285 267 2624
2022-05-24 13:00:14 GMT 51.474579 -0.820236 9,975 285 266 2560
2022-05-24 13:00:11 GMT 51.473007 -0.810539 9,850 285 266 2432
2022-05-24 13:00:09 GMT 51.473007 -0.810539 9,675 285 266 2432
2022-05-24 13:00:06 GMT 51.471970 -0.804443 9,525 285 263 2560
2022-05-24 13:00:04 GMT 51.471222 -0.799775 9,125 285 263 2560
2022-05-24 13:00:01 GMT 51.470261 -0.793762 9,350 285 263 3072
2022-05-24 12:59:58 GMT 51.469345 -0.788269 9,175 285 262 3136
2022-05-24 12:59:55 GMT 51.468842 -0.785151 9,175 285 262 3136
2022-05-24 12:59:53 GMT 51.467270 -0.775223 9,050 285 260 3072
2022-05-24 12:59:50 GMT 51.467270 -0.775223 8,950 285 260 3008
2022-05-24 12:59:47 GMT 51.465595 -0.764618 8,650 286 254 3456
2022-05-24 12:59:45 GMT 51.465595 -0.764618 8,575 285 255 3328
2022-05-24 12:59:42 GMT 51.464710 -0.759201 8,500 286 254 3456
2022-05-24 12:59:39 GMT 51.463963 -0.754700 8,150 286 254 4416
2022-05-24 12:59:36 GMT 51.462708 -0.747452 8,025 286 254 4544
2022-05-24 12:59:33 GMT 51.461975 -0.743062 7,800 285 255 4352
2022-05-24 12:59:30 GMT 51.461060 -0.737791 7,700 279 256 3136
2022-05-24 12:59:28 GMT 51.459869 -0.730362 7,400 285 257 4352
2022-05-24 12:59:25 GMT 51.459869 -0.730362 7,350 285 257 4352
2022-05-24 12:59:23 GMT 51.458908 -0.724430 7,150 283 258 4224
2022-05-24 12:59:20 GMT 51.457397 -0.714557 6,750 284 258 4416
2022-05-24 12:59:17 GMT 51.457397 -0.714557 6,725 283 258 4032
2022-05-24 12:59:15 GMT 51.456886 -0.710754 6,625 283 258 3968
2022-05-24 12:59:12 GMT 51.456142 -0.705414 6,375 281 258 3840
2022-05-24 12:59:09 GMT 51.455200 -0.697706 6,175 279 256 3136
2022-05-24 12:59:06 GMT 51.454788 -0.693549 6,000 274 254 2240
2022-05-24 12:59:03 GMT 51.454514 -0.687982 6,000 274 254 2240
2022-05-24 12:59:00 GMT 51.454468 -0.682340 5,800 256 246 4032
2022-05-24 12:58:58 GMT 51.454697 -0.677367 5,725 256 246 4032
2022-05-24 12:58:55 GMT 51.455631 -0.667496 5,575 257 246 3456
2022-05-24 12:58:52 GMT 51.455631 -0.667496 5,350 256 245 3648
2022-05-24 12:58:49 GMT 51.456329 -0.662842 5,075 256 247 4288
2022-05-24 12:58:46 GMT 51.457355 -0.656586 5,025 256 246 4224
2022-05-24 12:58:44 GMT 51.457672 -0.654726 4,950 256 249 4352
2022-05-24 12:58:42 GMT 51.459457 -0.643814 4,625 256 248 4416
2022-05-24 12:58:39 GMT 51.459457 -0.643814 4,475 256 248 4480
2022-05-24 12:58:36 GMT 51.460239 -0.639114 4,325 256 248 4544
2022-05-24 12:58:34 GMT 51.460556 -0.637059 4,100 257 250 4544
2022-05-24 12:58:32 GMT 51.461426 -0.631417 3,975 259 250 3840
2022-05-24 12:58:29 GMT 51.462101 -0.626526 3,825 259 250 4032
2022-05-24 12:58:26 GMT 51.462753 -0.620876 3,650 262 248 2624
2022-05-24 12:58:22 GMT 51.463577 -0.609222 3,275 267 241 1856
2022-05-24 12:58:19 GMT 51.463760 -0.603060 3,325 268 238 1856
2022-05-24 12:58:16 GMT 51.463760 -0.603060 3,325 269 237 1792
2022-05-24 12:58:14 GMT 51.463852 -0.599720 3,275 269 236 1792
2022-05-24 12:58:12 GMT 51.463917 -0.596085 3,225 269 232 1984
2022-05-24 12:58:09 GMT 51.463963 -0.591965 3,100 270 229 2176
2022-05-24 12:58:06 GMT 51.464035 -0.584948 2,975 270 226 1984
2022-05-24 12:58:04 GMT 51.464035 -0.583315 2,950 270 226 1984
2022-05-24 12:58:01 GMT 51.464058 -0.578079 2,800 270 225 1920
2022-05-24 12:57:58 GMT 51.464104 -0.567856 2,725 270 223 1856
2022-05-24 12:57:55 GMT 51.464104 -0.567856 2,650 270 222 1792
2022-05-24 12:57:53 GMT 51.464104 -0.564117 2,600 270 219 1536
2022-05-24 12:57:50 GMT 51.464172 -0.555106 2,475 270 214 1280
2022-05-24 12:57:47 GMT 51.464172 -0.555106 2,475 270 214 1280
2022-05-24 12:57:44 GMT 51.464264 -0.544937 2,400 270 207 1216
2022-05-24 12:57:41 GMT 51.464264 -0.544937 2,275 270 203 1280
2022-05-24 12:57:38 GMT 51.464264 -0.541151 2,250 270 198 1152
2022-05-24 12:57:35 GMT 51.464310 -0.536029 2,200 270 198 1152
2022-05-24 12:57:33 GMT 51.464355 -0.534396 2,150 270 190 1088
2022-05-24 12:57:30 GMT 51.464401 -0.528903 2,075 270 190 1088
2022-05-24 12:57:27 GMT 51.464401 -0.521628 2,025 270 185 960
2022-05-24 12:57:25 GMT 51.464401 -0.521628 2,025 270 185 960
2022-05-24 12:57:22 GMT 51.464382 -0.515976 1,950 270 179 960
2022-05-24 12:57:20 GMT 51.464401 -0.515170 1,950 270 178 1152
2022-05-24 12:57:19 GMT 51.464432 -0.512009 1,900 270 175 1216
2022-05-24 12:57:17 GMT 51.464432 -0.510941 1,875 270 172 1280
2022-05-24 12:57:15 GMT 51.464401 -0.508489 1,825 270 171 1536
2022-05-24 12:57:14 GMT 51.464447 -0.507153 1,800 270 170 1600
2022-05-24 12:57:13 GMT 51.464447 -0.504480 1,750 269 168 1856
2022-05-24 12:57:11 GMT 51.464447 -0.503293 1,700 269 168 1856
2022-05-24 12:57:10 GMT 51.464447 -0.502105 1,675 269 167 1920
2022-05-24 12:57:08 GMT 51.464523 -0.499496 1,600 269 166 2176
2022-05-24 12:57:07 GMT 51.464523 -0.498352 1,575 269 166 2240
2022-05-24 12:57:05 GMT 51.464539 -0.496092 1,475 269 166 2496
2022-05-24 12:57:04 GMT 51.464615 -0.493622 1,400 269 165 2624
2022-05-24 12:57:01 GMT 51.464615 -0.491867 1,350 269 165 2624
2022-05-24 12:57:00 GMT 51.464664 -0.489578 1,275 269 165 2688
2022-05-24 12:56:58 GMT 51.464664 -0.487213 1,175 270 164 2752
2022-05-24 12:56:57 GMT 51.464676 -0.485922 1,125 270 164 2752
2022-05-24 12:56:54 GMT 51.464722 -0.483398 1,050 269 164 2880
2022-05-24 12:56:53 GMT 51.464710 -0.482178 975 269 164 2880
2022-05-24 12:56:52 GMT 51.464722 -0.480503 825 269 165 2944
2022-05-24 12:56:50 GMT 51.464767 -0.477386 825 270 166 2944
2022-05-24 12:56:49 GMT 51.464756 -0.476303 700 270 166 2944
2022-05-24 12:56:48 GMT 51.464802 -0.473328 650 270 167 2816
2022-05-24 12:56:46 GMT 51.464802 -0.472260 575 270 168 2880
2022-05-24 12:56:44 GMT 51.464813 -0.471076 475 270 168 2816
2022-05-24 12:56:43 GMT 51.464802 -0.468063 450 270 168 2560
2022-05-24 12:56:41 GMT 51.464802 -0.466919 375 270 168 2304
2022-05-24 12:56:40 GMT 51.464813 -0.465583 325 269 166 1600
2022-05-24 12:56:38 GMT 51.464848 -0.463028 325 270 151 256
2022-05-24 12:56:33 GMT 51.464859 -0.453928 300 270 140 0
2022-05-24 12:56:30 GMT 51.464893 -0.452271 275 270 116 64
2022-05-24 12:56:25 GMT 51.464893 -0.448837 300 270 112 0
2022-05-24 12:56:24 GMT 51.464905 -0.447173 300 270 104 64
2022-05-24 12:56:20 GMT 51.464905 -0.444798 300 270 86 64
2022-05-24 12:56:18 GMT 51.464905 -0.443387 300 270 81 64
2022-05-24 12:56:16 GMT 51.464920 -0.442028 0 270 72
2022-05-24 12:56:12 GMT 51.464920 -0.439968 0 270 52
2022-05-24 12:56:10 GMT 51.464920 -0.439339 0 270 47
2022-05-24 12:56:09 GMT 51.464928 -0.438859 0 270 37
2022-05-24 12:56:04 GMT 51.464928 -0.437709 0 270 20
2022-05-24 12:56:01 GMT 51.464931 -0.437336 0 267 13
2022-05-24 12:55:59 GMT 51.464928 -0.437078 0 267 10
2022-05-24 12:55:56 GMT 51.464939 -0.436855 0 267 9
2022-05-24 12:55:53 GMT 51.464928 -0.436725 0 261 8
2022-05-24 12:55:51 GMT 51.464920 -0.436554 0 250 8
2022-05-24 12:55:50 GMT 51.464920 -0.436516 0 247 7
2022-05-24 12:55:47 GMT 51.464905 -0.436391 0 236 8
2022-05-24 12:55:46 GMT 51.464920 -0.436306 0 227 8
2022-05-24 12:55:44 GMT 51.464939 -0.436131 0 208 8
2022-05-24 12:55:41 GMT 51.465012 -0.435982 0 185 10
2022-05-24 12:55:37 GMT 51.465153 -0.435925 0 177 11
2022-05-24 12:55:35 GMT 51.465244 -0.435925 0 174 10
2022-05-24 12:55:33 GMT 51.465324 -0.435944 0 174 10
2022-05-24 12:55:31 GMT 51.465420 -0.435963 0 174 9
2022-05-24 12:55:29 GMT 51.465477 -0.435964 0 174 9
2022-05-24 12:55:28 GMT 51.465500 -0.435982 0 174 8
2022-05-24 12:55:26 GMT 51.465630 -0.435982 0 177 8
2022-05-24 12:55:23 GMT 51.465698 -0.436001 0 177 7
2022-05-24 12:55:21 GMT 51.465740 -0.436001 0 177 7
2022-05-24 12:55:17 GMT 51.465866 -0.436020 0 177 6
2022-05-24 12:55:15 GMT 51.465958 -0.436020 0 177 5
2022-05-24 12:55:08 GMT 51.466061 -0.436020 0 171 4
2022-05-24 12:55:06 GMT 51.466106 -0.436020 0 171 4
2022-05-24 12:55:05 GMT 51.466118 -0.436020 0 171 4
2022-05-24 12:55:01 GMT 51.466175 -0.436038 0 168 0
2022-05-24 12:54:36 GMT 51.466244 -0.436058 0 168 0
2022-05-24 12:54:16 GMT 51.466244 -0.436057 0 168 0
2022-05-24 12:54:01 GMT 51.466244 -0.436058 0 168 0
2022-05-24 12:53:56 GMT 51.466244 -0.436057 0 168 0
2022-05-24 12:53:31 GMT 51.466244 -0.436058 0 168 0
2022-05-24 12:53:29 GMT 51.466244 -0.436057 0 168 0
2022-05-24 12:53:26 GMT 51.466244 -0.436058 0 168 0
2022-05-24 12:53:24 GMT 51.466244 -0.436057 0 168 0
2022-05-24 12:53:23 GMT 51.466267 -0.436057 0 168 2
2022-05-24 12:53:19 GMT 51.466267 -0.436057 0 168 2
2022-05-24 12:53:16 GMT 51.466293 -0.436039 0 163 3
2022-05-24 12:53:12 GMT 51.466335 -0.436020 0 154 3
2022-05-24 12:53:08 GMT 51.466385 -0.436020 0 146 4
2022-05-24 12:53:07 GMT 51.466404 -0.436020 0 143 4
2022-05-24 12:53:05 GMT 51.466442 -0.436020 0 137 4
2022-05-24 12:53:03 GMT 51.466476 -0.436039 0 132 4
2022-05-24 12:53:00 GMT 51.466515 -0.436058 0 123 4
2022-05-24 12:52:59 GMT 51.466526 -0.436058 0 120 4
2022-05-24 12:52:58 GMT 51.466587 -0.436094 0 112 4
2022-05-24 12:52:56 GMT 51.466587 -0.436094 0 109 4
2022-05-24 12:52:54 GMT 51.466606 -0.436134 0 104 4
2022-05-24 12:52:53 GMT 51.466629 -0.436153 0 101 4
2022-05-24 12:52:52 GMT 51.466640 -0.436153 0 95 4
2022-05-24 12:52:50 GMT 51.466663 -0.436249 0 90 4
2022-05-24 12:52:48 GMT 51.466667 -0.436317 0 90 4
2022-05-24 12:52:46 GMT 51.466667 -0.436317 0 90 4
2022-05-24 12:52:41 GMT 51.466667 -0.436428 0 90 5
2022-05-24 12:52:37 GMT 51.466667 -0.436540 0 90 5
2022-05-24 12:52:34 GMT 51.466667 -0.436669 0 90 6
2022-05-24 12:52:31 GMT 51.466667 -0.436818 0 90 8
2022-05-24 12:52:29 GMT 51.466663 -0.436859 0 90 8
2022-05-24 12:52:26 GMT 51.466663 -0.437031 0 90 8
2022-05-24 12:52:25 GMT 51.466663 -0.437088 0 90 8
2022-05-24 12:52:21 GMT 51.466667 -0.437338 0 90 7
2022-05-24 12:52:20 GMT 51.466667 -0.437393 0 90 7
2022-05-24 12:52:19 GMT 51.466667 -0.437430 0 90 7
2022-05-24 12:52:17 GMT 51.466663 -0.437603 0 90 6
2022-05-24 12:52:13 GMT 51.466667 -0.437709 0 90 6
2022-05-24 12:52:09 GMT 51.466667 -0.437857 0 90 7
2022-05-24 12:52:07 GMT 51.466667 -0.438006 0 90 8
2022-05-24 12:52:06 GMT 51.466667 -0.438080 0 90 9
2022-05-24 12:52:04 GMT 51.466667 -0.438173 0 90 9
2022-05-24 12:52:03 GMT 51.466663 -0.438271 0 90 10
2022-05-24 12:52:01 GMT 51.466663 -0.438366 0 90 10
2022-05-24 12:51:59 GMT 51.466667 -0.438507 0 90 11
2022-05-24 12:51:56 GMT 51.466667 -0.438711 0 90 12
2022-05-24 12:51:55 GMT 51.466667 -0.438804 0 90 13
2022-05-24 12:51:52 GMT 51.466667 -0.439119 0 90 15
2022-05-24 12:51:50 GMT 51.466663 -0.439396 0 90 17
2022-05-24 12:51:46 GMT 51.466667 -0.439676 0 90 18
2022-05-24 12:51:43 GMT 51.466663 -0.440159 0 90 18
2022-05-24 12:51:41 GMT 51.466656 -0.440307 0 90 18
2022-05-24 12:51:40 GMT 51.466656 -0.440437 0 90 18
2022-05-24 12:51:39 GMT 51.466656 -0.440641 0 90 18
2022-05-24 12:51:37 GMT 51.466656 -0.440919 0 90 18
2022-05-24 12:51:35 GMT 51.466652 -0.441246 0 90 17
2022-05-24 12:51:33 GMT 51.466656 -0.441699 0 90 17
2022-05-24 12:51:31 GMT 51.466656 -0.441699 0 90 17
2022-05-24 12:51:30 GMT 51.466656 -0.441958 0 90 17
2022-05-24 12:51:25 GMT 51.466656 -0.442534 0 90 18
2022-05-24 12:51:23 GMT 51.466656 -0.442923 0 90 18
2022-05-24 12:51:21 GMT 51.466656 -0.442998 0 90 18
2022-05-24 12:51:19 GMT 51.466652 -0.443287 0 90 18
2022-05-24 12:51:18 GMT 51.466652 -0.443420 0 90 19
2022-05-24 12:51:16 GMT 51.466644 -0.443721 0 90 19
2022-05-24 12:51:14 GMT 51.466644 -0.443926 0 90 19
2022-05-24 12:51:12 GMT 51.466644 -0.444427 0 90 19
2022-05-24 12:51:09 GMT 51.466644 -0.444557 0 90 19
2022-05-24 12:51:08 GMT 51.466644 -0.444965 0 90 18
2022-05-24 12:51:06 GMT 51.466644 -0.444965 0 90 18
2022-05-24 12:51:05 GMT 51.466640 -0.445118 0 90 18
2022-05-24 12:51:01 GMT 51.466644 -0.445744 0 90 18
2022-05-24 12:50:58 GMT 51.466644 -0.445986 0 90 19
2022-05-24 12:50:57 GMT 51.466640 -0.446186 0 90 19
2022-05-24 12:50:54 GMT 51.466640 -0.446682 0 90 20
2022-05-24 12:50:52 GMT 51.466644 -0.446802 0 90 20
2022-05-24 12:50:49 GMT 51.466633 -0.447303 0 90 20
2022-05-24 12:50:42 GMT 51.466629 -0.448265 0 90 19
2022-05-24 12:50:34 GMT 51.466633 -0.449512 0 90 17
2022-05-24 12:50:18 GMT 51.466618 -0.451488 0 90 20
2022-05-24 12:50:14 GMT 51.466621 -0.452035 0 90 20
2022-05-24 12:50:09 GMT 51.466621 -0.452778 0 90 19
2022-05-24 12:50:05 GMT 51.466618 -0.453320 0 90 19
2022-05-24 12:50:03 GMT 51.466618 -0.453606 0 90 18
2022-05-24 12:50:00 GMT 51.466618 -0.454102 0 90 18
2022-05-24 12:49:59 GMT 51.466618 -0.454254 0 90 18
2022-05-24 12:49:53 GMT 51.466621 -0.454986 0 90 17
2022-05-24 12:49:44 GMT 51.466606 -0.456085 0 90 17
2022-05-24 12:49:41 GMT 51.466610 -0.456434 0 90 16
2022-05-24 12:49:36 GMT 51.466606 -0.457020 0 90 15
2022-05-24 12:49:31 GMT 51.466595 -0.457611 0 90 14
2022-05-24 12:49:23 GMT 51.466599 -0.458401 0 90 13
2022-05-24 12:49:19 GMT 51.466610 -0.458772 0 90 12
2022-05-24 12:49:10 GMT 51.466595 -0.459538 0 90 11
2022-05-24 12:49:08 GMT 51.466599 -0.459644 0 90 10
2022-05-24 12:49:06 GMT 51.466595 -0.459766 0 90 10
2022-05-24 12:49:04 GMT 51.466599 -0.459848 0 90 10
2022-05-24 12:49:01 GMT 51.466599 -0.460145 0 90 10
2022-05-24 12:48:59 GMT 51.466595 -0.460243 0 90 10
2022-05-24 12:48:51 GMT 51.466599 -0.460776 0 90 9
2022-05-24 12:48:47 GMT 51.466587 -0.461036 0 90 8
2022-05-24 12:48:46 GMT 51.466587 -0.461110 0 90 8
2022-05-24 12:48:42 GMT 51.466587 -0.461314 0 90 7
2022-05-24 12:48:39 GMT 51.466587 -0.461444 0 90 6
2022-05-24 12:48:36 GMT 51.466595 -0.461578 0 90 6
2022-05-24 12:48:33 GMT 51.466595 -0.461712 0 90 5
2022-05-24 12:48:29 GMT 51.466587 -0.461871 0 90 6
2022-05-24 12:48:27 GMT 51.466587 -0.461945 0 90 6
2022-05-24 12:48:26 GMT 51.466587 -0.461983 0 90 6
2022-05-24 12:48:25 GMT 51.466583 -0.462036 0 90 6
2022-05-24 12:48:23 GMT 51.466587 -0.462131 0 90 7
2022-05-24 12:48:21 GMT 51.466583 -0.462227 0 90 7
2022-05-24 12:48:18 GMT 51.466583 -0.462360 0 90 8
2022-05-24 12:48:16 GMT 51.466583 -0.462494 0 90 7
2022-05-24 12:48:13 GMT 51.466583 -0.462646 0 90 7
2022-05-24 12:48:10 GMT 51.466583 -0.462761 0 90 7
2022-05-24 12:48:09 GMT 51.466583 -0.462818 0 90 6
2022-05-24 12:48:06 GMT 51.466587 -0.462948 0 90 6
2022-05-24 12:48:05 GMT 51.466583 -0.462990 0 90 5
2022-05-24 12:48:01 GMT 51.466583 -0.463142 0 90 5
2022-05-24 12:48:00 GMT 51.466587 -0.463244 0 90 6
2022-05-24 12:47:58 GMT 51.466587 -0.463244 0 90 6
2022-05-24 12:47:51 GMT 51.466583 -0.463543 0 90 9
2022-05-24 12:47:47 GMT 51.466587 -0.463746 0 90 11
2022-05-24 12:47:43 GMT 51.466583 -0.464115 0 90 13
2022-05-24 12:47:41 GMT 51.466583 -0.464268 0 90 13
2022-05-24 12:47:39 GMT 51.466583 -0.464439 0 90 13
2022-05-24 12:47:36 GMT 51.466576 -0.464729 0 90 12
2022-05-24 12:47:34 GMT 51.466583 -0.464897 0 90 12
2022-05-24 12:47:32 GMT 51.466583 -0.465031 0 90 11
2022-05-24 12:47:30 GMT 51.466576 -0.465174 0 90 11
2022-05-24 12:47:29 GMT 51.466576 -0.465286 0 90 11
2022-05-24 12:47:28 GMT 51.466583 -0.465355 0 90 10
2022-05-24 12:47:26 GMT 51.466576 -0.465676 0 90 10
2022-05-24 12:47:20 GMT 51.466576 -0.465954 0 90 9
2022-05-24 12:47:18 GMT 51.466576 -0.466047 0 90 8
2022-05-24 12:47:15 GMT 51.466572 -0.466251 0 90 8
2022-05-24 12:47:08 GMT 51.466572 -0.466576 0 90 6
2022-05-24 12:47:06 GMT 51.466576 -0.466715 0 90 6
2022-05-24 12:47:04 GMT 51.466576 -0.466789 0 90 5
2022-05-24 12:47:01 GMT 51.466572 -0.466881 0 90 5
2022-05-24 12:46:58 GMT 51.466572 -0.466995 0 90 4
2022-05-24 12:46:56 GMT 51.466576 -0.467067 0 90 4
2022-05-24 12:46:55 GMT 51.466572 -0.467205 0 90 6
2022-05-24 12:46:51 GMT 51.466572 -0.467281 0 90 7
2022-05-24 12:46:49 GMT 51.466572 -0.467281 0 90 8
2022-05-24 12:46:48 GMT 51.466564 -0.467346 0 90 8
2022-05-24 12:46:47 GMT 51.466572 -0.467396 0 90 9
2022-05-24 12:46:45 GMT 51.466572 -0.467510 0 90 9
2022-05-24 12:46:44 GMT 51.466572 -0.467606 0 90 9
2022-05-24 12:46:42 GMT 51.466564 -0.467680 0 90 9
2022-05-24 12:46:38 GMT 51.466572 -0.468025 0 90 8
2022-05-24 12:46:37 GMT 51.466572 -0.468025 0 90 8
2022-05-24 12:46:36 GMT 51.466564 -0.468144 0 90 8
2022-05-24 12:46:34 GMT 51.466564 -0.468199 0 90 8
2022-05-24 12:46:30 GMT 51.466564 -0.468422 0 90 7
2022-05-24 12:46:24 GMT 51.466564 -0.468960 0 90 9
2022-05-24 12:46:19 GMT 51.466564 -0.468960 0 90 9
2022-05-24 12:46:17 GMT 51.466564 -0.469146 0 90 11
2022-05-24 12:46:14 GMT 51.466564 -0.469257 0 90 12
2022-05-24 12:46:11 GMT 51.466564 -0.469591 0 90 13
2022-05-24 12:46:07 GMT 51.466560 -0.469933 0 90 15
2022-05-24 12:46:05 GMT 51.466564 -0.470148 0 90 16
2022-05-24 12:46:02 GMT 51.466564 -0.470519 0 90 17
2022-05-24 12:46:00 GMT 51.466564 -0.470705 0 90 17
2022-05-24 12:45:54 GMT 51.466564 -0.471410 0 90 17
2022-05-24 12:45:51 GMT 51.466553 -0.471781 0 90 18
2022-05-24 12:45:49 GMT 51.466549 -0.472050 0 90 19
2022-05-24 12:45:47 GMT 51.466549 -0.472336 0 90 19
2022-05-24 12:45:46 GMT 51.466553 -0.472486 0 90 19
2022-05-24 12:45:45 GMT 51.466553 -0.472616 0 90 19
2022-05-24 12:45:43 GMT 51.466553 -0.472932 0 90 19
2022-05-24 12:45:41 GMT 51.466553 -0.473117 0 90 18
2022-05-24 12:45:39 GMT 51.466553 -0.473470 0 90 18
2022-05-24 12:45:36 GMT 51.466553 -0.473823 0 90 18
2022-05-24 12:45:34 GMT 51.466560 -0.474110 0 90 18
2022-05-24 12:45:32 GMT 51.466553 -0.474305 0 90 18
2022-05-24 12:45:31 GMT 51.466549 -0.474739 0 90 17
2022-05-24 12:45:29 GMT 51.466549 -0.475121 0 90 16
2022-05-24 12:45:26 GMT 51.466541 -0.475548 0 90 15
2022-05-24 12:45:22 GMT 51.466541 -0.475548 0 90 14
2022-05-24 12:45:19 GMT 51.466549 -0.475922 0 90 14
2022-05-24 12:45:17 GMT 51.466541 -0.476124 0 90 13
2022-05-24 12:45:14 GMT 51.466541 -0.476421 0 90 13
2022-05-24 12:45:10 GMT 51.466541 -0.476885 0 90 12
2022-05-24 12:45:04 GMT 51.466537 -0.477276 0 92 11
2022-05-24 12:45:03 GMT 51.466530 -0.477349 0 92 11
2022-05-24 12:45:01 GMT 51.466537 -0.477505 0 95 11
2022-05-24 12:44:58 GMT 51.466541 -0.477701 0 98 10
2022-05-24 12:44:55 GMT 51.466541 -0.478109 0 120 10
2022-05-24 12:44:53 GMT 51.466541 -0.478109 0 120 10
2022-05-24 12:44:52 GMT 51.466541 -0.478239 0 132 9
2022-05-24 12:44:49 GMT 51.466564 -0.478332 0 140 9
2022-05-24 12:44:45 GMT 51.466644 -0.478555 0 165 8
2022-05-24 12:44:44 GMT 51.466679 -0.478592 0 171 8
2022-05-24 12:44:42 GMT 51.466759 -0.478630 0 177 9
2022-05-24 12:44:40 GMT 51.466873 -0.478649 0 180 11
2022-05-24 12:44:33 GMT 51.467178 -0.478649 0 180 14
2022-05-24 12:44:29 GMT 51.467468 -0.478648 0 180 14
2022-05-24 12:44:25 GMT 51.467838 -0.478649 0 180 13
2022-05-24 12:44:23 GMT 51.467838 -0.478649 0 180 13
2022-05-24 12:44:22 GMT 51.467991 -0.478649 0 180 13
2022-05-24 12:44:19 GMT 51.468075 -0.478649 0 180 13
2022-05-24 12:44:14 GMT 51.468330 -0.478649 0 180 12
2022-05-24 12:44:13 GMT 51.468452 -0.478666 0 180 12
2022-05-24 12:44:04 GMT 51.468922 -0.478668 0 180 10
2022-05-24 12:44:03 GMT 51.468922 -0.478668 0 180 10
2022-05-24 12:43:56 GMT 51.469227 -0.478668 0 180 9
2022-05-24 12:43:54 GMT 51.469307 -0.478668 0 180 9
2022-05-24 12:43:52 GMT 51.469391 -0.478666 0 180 9
2022-05-24 12:43:51 GMT 51.469448 -0.478666 0 180 9
2022-05-24 12:43:47 GMT 51.469574 -0.478668 0 180 8
2022-05-24 12:43:44 GMT 51.469700 -0.478685 0 180 8
2022-05-24 12:43:34 GMT 51.470020 -0.478685 0 180 6
2022-05-24 12:43:32 GMT 51.470043 -0.478685 0 180 6
2022-05-24 12:43:30 GMT 51.470097 -0.478668 0 180 6
2022-05-24 12:43:29 GMT 51.470119 -0.478668 0 180 6
2022-05-24 12:43:27 GMT 51.470181 -0.478685 0 180 5
2022-05-24 12:43:25 GMT 51.470249 -0.478668 0 180 5
2022-05-24 12:43:23 GMT 51.470261 -0.478668 0 180 5
2022-05-24 12:43:22 GMT 51.470329 -0.478687 0 180 4
2022-05-24 12:43:20 GMT 51.470329 -0.478687 0 180 4
2022-05-24 12:43:18 GMT 51.470364 -0.478687 0 180 4
2022-05-24 12:43:17 GMT 51.470390 -0.478687 0 180 4
2022-05-24 12:43:16 GMT 51.470421 -0.478685 0 180 4
2022-05-24 12:43:13 GMT 51.470444 -0.478685 0 180 3
2022-05-24 12:43:12 GMT 51.470455 -0.478685 0 180 3
2022-05-24 12:43:11 GMT 51.470478 -0.478685 0 180 0
2022-05-24 12:43:00 GMT 51.470562 -0.478687 0 182 0
2022-05-24 12:42:51 GMT 51.470573 -0.478687 0 182 0
2022-05-24 12:42:26 GMT 51.470570 -0.478685 0 182 0
2022-05-24 12:42:21 GMT 51.470570 -0.478685 0 182 0
2022-05-24 12:42:06 GMT 51.470570 -0.478685 0 182 0
2022-05-24 12:41:51 GMT 51.470573 -0.478687 0 182 0
2022-05-24 12:41:46 GMT 51.470570 -0.478685 0 182 0
2022-05-24 12:40:36 GMT 51.470573 -0.478687 0 182 0
2022-05-24 12:40:22 GMT 51.470570 -0.478685 0 182 0
2022-05-24 12:40:07 GMT 51.470573 -0.478687 0 182 0
2022-05-24 12:40:03 GMT 51.470570 -0.478685 0 182 0
2022-05-24 12:40:02 GMT 51.470573 -0.478687 0 182 0
2022-05-24 12:39:57 GMT 51.470570 -0.478685 0 182 0
2022-05-24 12:39:56 GMT 51.470573 -0.478687 0 182 0
2022-05-24 12:39:50 GMT 51.470573 -0.478687 0 182 0
2022-05-24 12:39:48 GMT 51.470570 -0.478685 0 182 1
2022-05-24 12:39:46 GMT 51.470547 -0.478666 0 180 2
2022-05-24 12:39:43 GMT 51.470535 -0.478666 0 180 2
2022-05-24 12:39:42 GMT 51.470524 -0.478666 0 177 2
2022-05-24 12:39:39 GMT 51.470505 -0.478630 0 174 2
2022-05-24 12:39:37 GMT 51.470501 -0.478629 0 171 2
2022-05-24 12:39:33 GMT 51.470482 -0.478592 0 168 2
2022-05-24 12:39:31 GMT 51.470470 -0.478554 0 163 2
2022-05-24 12:39:30 GMT 51.470467 -0.478555 0 163 2
2022-05-24 12:39:25 GMT 51.470455 -0.478481 0 154 2
2022-05-24 12:39:23 GMT 51.470448 -0.478439 0 149 2
2022-05-24 12:39:18 GMT 51.470448 -0.478363 0 137 3
2022-05-24 12:39:15 GMT 51.470444 -0.478314 0 132 3
2022-05-24 12:39:08 GMT 51.470459 -0.478210 0 118 3
2022-05-24 12:39:07 GMT 51.470459 -0.478191 0 115 3
2022-05-24 12:38:46 GMT 51.470505 -0.477791 0 92 3
2022-05-24 12:38:45 GMT 51.470505 -0.477772 0 90 3
2022-05-24 12:38:37 GMT 51.470505 -0.477619 0 90 3
2022-05-24 12:38:32 GMT 51.470501 -0.477516 0 90 3
2022-05-24 12:38:25 GMT 51.470501 -0.477367 0 90 3
2022-05-24 12:38:22 GMT 51.470505 -0.477314 0 90 3
2022-05-24 12:38:21 GMT 51.470501 -0.477293 0 90 3
2022-05-24 12:38:19 GMT 51.470493 -0.477257 0 90 3
2022-05-24 12:38:17 GMT 51.470493 -0.477200 0 90 3
2022-05-24 12:38:16 GMT 51.470501 -0.477182 0 90 3
2022-05-24 12:38:13 GMT 51.470493 -0.477142 0 90 3
2022-05-24 12:37:39 GMT 51.470505 -0.477009 0 90 0

Making use of Plane Finder data

You are free to use the raw flight data, aircraft information and images provided in this report for your own purposes provided the data is correctly attributed to Plane Finder. We ask that you please credit Plane Finder and link to planefinder.net in close proximity to the content.

Optionally one of the following logos (no smaller then 150x24px) can be used and must link to planefinder.net

Embedding the Plane Finder map

You are welcome to embed the Plane Finder playback map on your website to offer visitors a more interactive experience. We suggest using the following HTML code:

<iframe src="//planefinder.net/data/report/BA67-G-STBB-7700-squawk-2022-05-24/map" width="800" height="600" seamless="seamless"></iframe>

Where our data comes from

Plane Finder has a global network of data feeds and antenna radars that receive data broadcast directly from aircraft. The primary technologies used are ADS-B and MLAT. We also show feeds from the FAA and a FLARM glider feed.

Click here to find out more about the Plane Finder network.

How we collect our data